﻿<?xml version="1.0" encoding="utf-8"?><gpx creator="Garmin Desktop App" version="1.1" xsi:schemaLocation="http://www.topografix.com/GPX/1/1 http://www.topografix.com/GPX/1/1/gpx.xsd http://www.garmin.com/xmlschemas/WaypointExtension/v1 http://www8.garmin.com/xmlschemas/WaypointExtensionv1.xsd http://www.garmin.com/xmlschemas/TrackPointExtension/v1 http://www.garmin.com/xmlschemas/TrackPointExtensionv1.xsd http://www.garmin.com/xmlschemas/GpxExtensions/v3 http://www8.garmin.com/xmlschemas/GpxExtensionsv3.xsd http://www.garmin.com/xmlschemas/ActivityExtension/v1 http://www8.garmin.com/xmlschemas/ActivityExtensionv1.xsd http://www.garmin.com/xmlschemas/AdventuresExtensions/v1 http://www8.garmin.com/xmlschemas/AdventuresExtensionv1.xsd http://www.garmin.com/xmlschemas/PressureExtension/v1 http://www.garmin.com/xmlschemas/PressureExtensionv1.xsd http://www.garmin.com/xmlschemas/TripExtensions/v1 http://www.garmin.com/xmlschemas/TripExtensionsv1.xsd http://www.garmin.com/xmlschemas/TripMetaDataExtensions/v1 http://www.garmin.com/xmlschemas/TripMetaDataExtensionsv1.xsd http://www.garmin.com/xmlschemas/ViaPointTransportationModeExtensions/v1 http://www.garmin.com/xmlschemas/ViaPointTransportationModeExtensionsv1.xsd http://www.garmin.com/xmlschemas/CreationTimeExtension/v1 http://www.garmin.com/xmlschemas/CreationTimeExtensionsv1.xsd http://www.garmin.com/xmlschemas/AccelerationExtension/v1 http://www.garmin.com/xmlschemas/AccelerationExtensionv1.xsd http://www.garmin.com/xmlschemas/PowerExtension/v1 http://www.garmin.com/xmlschemas/PowerExtensionv1.xsd http://www.garmin.com/xmlschemas/VideoExtension/v1 http://www.garmin.com/xmlschemas/VideoExtensionv1.xsd" xmlns="http://www.topografix.com/GPX/1/1" xmlns:xsi="http://www.w3.org/2001/XMLSchema-instance" xmlns:wptx1="http://www.garmin.com/xmlschemas/WaypointExtension/v1" xmlns:gpxtrx="http://www.garmin.com/xmlschemas/GpxExtensions/v3" xmlns:gpxtpx="http://www.garmin.com/xmlschemas/TrackPointExtension/v1" xmlns:gpxx="http://www.garmin.com/xmlschemas/GpxExtensions/v3" xmlns:trp="http://www.garmin.com/xmlschemas/TripExtensions/v1" xmlns:adv="http://www.garmin.com/xmlschemas/AdventuresExtensions/v1" xmlns:prs="http://www.garmin.com/xmlschemas/PressureExtension/v1" xmlns:tmd="http://www.garmin.com/xmlschemas/TripMetaDataExtensions/v1" xmlns:vptm="http://www.garmin.com/xmlschemas/ViaPointTransportationModeExtensions/v1" xmlns:ctx="http://www.garmin.com/xmlschemas/CreationTimeExtension/v1" xmlns:gpxacc="http://www.garmin.com/xmlschemas/AccelerationExtension/v1" xmlns:gpxpx="http://www.garmin.com/xmlschemas/PowerExtension/v1" xmlns:vidx1="http://www.garmin.com/xmlschemas/VideoExtension/v1">

  <metadata>
    <link href="http://www.garmin.com">
      <text>Garmin International</text>
    </link>
    <time>2026-04-01T15:51:39Z</time>
    <bounds maxlat="52.377955270931125" maxlon="8.263454474508762" minlat="52.244918122887611" minlon="8.03635192103684" />
  </metadata>

  <trk>
    <name>20260401Ostercappeln</name>
    <extensions>
      <gpxx:TrackExtension>
        <gpxx:DisplayColor>DarkGray</gpxx:DisplayColor>
      </gpxx:TrackExtension>
    </extensions>
    <trkseg>
      <trkpt lat="52.277620621025562" lon="8.039696384221315">
        <ele>69.484375</ele>
        <time>2025-12-07T07:57:35Z</time>
      </trkpt>
      <trkpt lat="52.277924297377467" lon="8.039894783869386">
        <ele>69.24609375</ele>
        <time>2025-12-07T07:57:40Z</time>
      </trkpt>
      <trkpt lat="52.278065700083971" lon="8.04048327729106">
        <ele>68.67578125</ele>
        <time>2025-12-07T07:57:42Z</time>
      </trkpt>
      <trkpt lat="52.278543217107654" lon="8.04091720841825">
        <ele>67.09765625</ele>
        <time>2025-12-07T07:57:45Z</time>
      </trkpt>
      <trkpt lat="52.278783526271582" lon="8.041147207841277">
        <ele>66.08203125</ele>
        <time>2025-12-07T07:57:50Z</time>
      </trkpt>
      <trkpt lat="52.27902383543551" lon="8.041377123445272">
        <ele>65.015625</ele>
        <time>2025-12-07T07:57:56Z</time>
      </trkpt>
      <trkpt lat="52.27948953397572" lon="8.041862603276968">
        <ele>65.3828125</ele>
        <time>2025-12-07T07:58:07Z</time>
      </trkpt>
      <trkpt lat="52.279721712693572" lon="8.042568862438202">
        <ele>66.84765625</ele>
        <time>2025-12-07T07:58:18Z</time>
      </trkpt>
      <trkpt lat="52.279888428747654" lon="8.043341925367713">
        <ele>66.01953125</ele>
        <time>2025-12-07T07:58:28Z</time>
      </trkpt>
      <trkpt lat="52.280068472027779" lon="8.043670663610101">
        <ele>65.49609375</ele>
        <time>2025-12-07T07:58:39Z</time>
      </trkpt>
      <trkpt lat="52.280506594106555" lon="8.043621797114611">
        <ele>65.12890625</ele>
        <time>2025-12-07T07:58:49Z</time>
      </trkpt>
      <trkpt lat="52.280513383448124" lon="8.044292684644461">
        <ele>64.94140625</ele>
        <time>2025-12-07T07:59:00Z</time>
      </trkpt>
      <trkpt lat="52.280374662950635" lon="8.044999781996012">
        <ele>63.5234375</ele>
        <time>2025-12-07T07:59:11Z</time>
      </trkpt>
      <trkpt lat="52.280300399288535" lon="8.045412003993988">
        <ele>64.16796875</ele>
        <time>2025-12-07T07:59:21Z</time>
      </trkpt>
      <trkpt lat="52.280370639637113" lon="8.046003933995962">
        <ele>65.53515625</ele>
        <time>2025-12-07T07:59:32Z</time>
      </trkpt>
      <trkpt lat="52.280086576938629" lon="8.046574322506785">
        <ele>66.953125</ele>
        <time>2025-12-07T07:59:43Z</time>
      </trkpt>
      <trkpt lat="52.279751803725958" lon="8.047078913077712">
        <ele>66.45703125</ele>
        <time>2025-12-07T07:59:53Z</time>
      </trkpt>
      <trkpt lat="52.279529264196754" lon="8.047522734850645">
        <ele>67.0703125</ele>
        <time>2025-12-07T08:00:04Z</time>
      </trkpt>
      <trkpt lat="52.279926231130958" lon="8.047860441729426">
        <ele>64.7265625</ele>
        <time>2025-12-07T08:00:15Z</time>
      </trkpt>
      <trkpt lat="52.280020024627447" lon="8.048614393919706">
        <ele>64.2734375</ele>
        <time>2025-12-07T08:00:25Z</time>
      </trkpt>
      <trkpt lat="52.279978869482875" lon="8.049522740766406">
        <ele>65.43359375</ele>
        <time>2025-12-07T08:00:36Z</time>
      </trkpt>
      <trkpt lat="52.279969565570354" lon="8.05038733407855">
        <ele>66.30859375</ele>
        <time>2025-12-07T08:00:46Z</time>
      </trkpt>
      <trkpt lat="52.279943414032459" lon="8.05127271451056">
        <ele>66.08984375</ele>
        <time>2025-12-07T08:00:56Z</time>
      </trkpt>
      <trkpt lat="52.279929667711258" lon="8.052236214280129">
        <ele>65.4296875</ele>
        <time>2025-12-07T08:01:07Z</time>
      </trkpt>
      <trkpt lat="52.279891194775701" lon="8.053049091249704">
        <ele>64.453125</ele>
        <time>2025-12-07T08:01:17Z</time>
      </trkpt>
      <trkpt lat="52.279889937490225" lon="8.053974034264684">
        <ele>64.53515625</ele>
        <time>2025-12-07T08:01:28Z</time>
      </trkpt>
      <trkpt lat="52.27990971878171" lon="8.054928062483668">
        <ele>65.5703125</ele>
        <time>2025-12-07T08:01:39Z</time>
      </trkpt>
      <trkpt lat="52.280256394296885" lon="8.055730294436216">
        <ele>66.05859375</ele>
        <time>2025-12-07T08:01:49Z</time>
      </trkpt>
      <trkpt lat="52.28059183806181" lon="8.056551720947027">
        <ele>66.6015625</ele>
        <time>2025-12-07T08:01:59Z</time>
      </trkpt>
      <trkpt lat="52.280904985964298" lon="8.057468784973025">
        <ele>66.11328125</ele>
        <time>2025-12-07T08:02:10Z</time>
      </trkpt>
      <trkpt lat="52.281154012307525" lon="8.058435469865799">
        <ele>65.3984375</ele>
        <time>2025-12-07T08:02:21Z</time>
      </trkpt>
      <trkpt lat="52.2813555970788" lon="8.059297632426024">
        <ele>66.05859375</ele>
        <time>2025-12-07T08:02:31Z</time>
      </trkpt>
      <trkpt lat="52.28170202113688" lon="8.060113610699773">
        <ele>66.4921875</ele>
        <time>2025-12-07T08:02:42Z</time>
      </trkpt>
      <trkpt lat="52.282003769651055" lon="8.06103989481926">
        <ele>66.73828125</ele>
        <time>2025-12-07T08:02:53Z</time>
      </trkpt>
      <trkpt lat="52.282302165403962" lon="8.062021164223552">
        <ele>66.01953125</ele>
        <time>2025-12-07T08:03:04Z</time>
      </trkpt>
      <trkpt lat="52.28266560472548" lon="8.062794059514999">
        <ele>67.13671875</ele>
        <time>2025-12-07T08:03:14Z</time>
      </trkpt>
      <trkpt lat="52.283030804246664" lon="8.063726630061865">
        <ele>67.94921875</ele>
        <time>2025-12-07T08:03:25Z</time>
      </trkpt>
      <trkpt lat="52.283365661278367" lon="8.064674371853471">
        <ele>67.734375</ele>
        <time>2025-12-07T08:03:36Z</time>
      </trkpt>
      <trkpt lat="52.283646035939455" lon="8.065511807799339">
        <ele>67.8046875</ele>
        <time>2025-12-07T08:03:46Z</time>
      </trkpt>
      <trkpt lat="52.283812835812569" lon="8.066311273723841">
        <ele>67.3125</ele>
        <time>2025-12-07T08:03:57Z</time>
      </trkpt>
      <trkpt lat="52.283993884921074" lon="8.067030105739832">
        <ele>66.78125</ele>
        <time>2025-12-07T08:04:08Z</time>
      </trkpt>
      <trkpt lat="52.284283395856619" lon="8.067916827276349">
        <ele>67.65234375</ele>
        <time>2025-12-07T08:04:19Z</time>
      </trkpt>
      <trkpt lat="52.283926662057638" lon="8.068656027317047">
        <ele>67.78125</ele>
        <time>2025-12-07T08:04:30Z</time>
      </trkpt>
      <trkpt lat="52.283495077863336" lon="8.069176962599158">
        <ele>68.62890625</ele>
        <time>2025-12-07T08:04:40Z</time>
      </trkpt>
      <trkpt lat="52.283131638541818" lon="8.069177297875285">
        <ele>67.83984375</ele>
        <time>2025-12-07T08:04:51Z</time>
      </trkpt>
      <trkpt lat="52.282562591135502" lon="8.068792568519712">
        <ele>67.984375</ele>
        <time>2025-12-07T08:05:02Z</time>
      </trkpt>
      <trkpt lat="52.28201818652451" lon="8.068305579945445">
        <ele>67.9609375</ele>
        <time>2025-12-07T08:05:13Z</time>
      </trkpt>
      <trkpt lat="52.281696991994977" lon="8.067961586639285">
        <ele>68.26171875</ele>
        <time>2025-12-07T08:05:23Z</time>
      </trkpt>
      <trkpt lat="52.2816854249686" lon="8.068480174988508">
        <ele>68.1328125</ele>
        <time>2025-12-07T08:06:25Z</time>
      </trkpt>
      <trkpt lat="52.281786007806659" lon="8.068963224068284">
        <ele>69.0703125</ele>
        <time>2025-12-07T08:06:35Z</time>
      </trkpt>
      <trkpt lat="52.281353836879134" lon="8.069305960088968">
        <ele>69.859375</ele>
        <time>2025-12-07T08:06:56Z</time>
      </trkpt>
      <trkpt lat="52.280766014009714" lon="8.069414338096976">
        <ele>69.3125</ele>
        <time>2025-12-07T08:07:07Z</time>
      </trkpt>
      <trkpt lat="52.280155392363667" lon="8.069537132978439">
        <ele>70.91015625</ele>
        <time>2025-12-07T08:07:18Z</time>
      </trkpt>
      <trkpt lat="52.279493138194084" lon="8.069661436602473">
        <ele>71.81640625</ele>
        <time>2025-12-07T08:07:29Z</time>
      </trkpt>
      <trkpt lat="52.278848737478256" lon="8.069768473505974">
        <ele>71.26953125</ele>
        <time>2025-12-07T08:07:40Z</time>
      </trkpt>
      <trkpt lat="52.27827868424356" lon="8.069894537329674">
        <ele>71.79296875</ele>
        <time>2025-12-07T08:07:50Z</time>
      </trkpt>
      <trkpt lat="52.27819561958313" lon="8.070753263309598">
        <ele>71.7890625</ele>
        <time>2025-12-07T08:08:01Z</time>
      </trkpt>
      <trkpt lat="52.278224537149072" lon="8.071704190224409">
        <ele>71.71875</ele>
        <time>2025-12-07T08:08:11Z</time>
      </trkpt>
      <trkpt lat="52.278228979557753" lon="8.072786880657077">
        <ele>69.296875</ele>
        <time>2025-12-07T08:08:22Z</time>
      </trkpt>
      <trkpt lat="52.278245324268937" lon="8.073624316602945">
        <ele>70.1328125</ele>
        <time>2025-12-07T08:08:32Z</time>
      </trkpt>
      <trkpt lat="52.278245240449905" lon="8.074359325692058">
        <ele>71</ele>
        <time>2025-12-07T08:08:42Z</time>
      </trkpt>
      <trkpt lat="52.278261836618185" lon="8.075361466035247">
        <ele>71.7734375</ele>
        <time>2025-12-07T08:08:53Z</time>
      </trkpt>
      <trkpt lat="52.278361162170768" lon="8.076276015490294">
        <ele>71.6328125</ele>
        <time>2025-12-07T08:09:03Z</time>
      </trkpt>
      <trkpt lat="52.278464930132031" lon="8.077172376215458">
        <ele>71.62890625</ele>
        <time>2025-12-07T08:09:13Z</time>
      </trkpt>
      <trkpt lat="52.278587808832526" lon="8.078105030581355">
        <ele>72</ele>
        <time>2025-12-07T08:09:24Z</time>
      </trkpt>
      <trkpt lat="52.278698030859232" lon="8.079032236710191">
        <ele>72.74609375</ele>
        <time>2025-12-07T08:09:35Z</time>
      </trkpt>
      <trkpt lat="52.278801798820496" lon="8.079906888306141">
        <ele>72.66015625</ele>
        <time>2025-12-07T08:09:45Z</time>
      </trkpt>
      <trkpt lat="52.278885869309306" lon="8.08073602616787">
        <ele>73.4765625</ele>
        <time>2025-12-07T08:09:55Z</time>
      </trkpt>
      <trkpt lat="52.27900086902082" lon="8.081650910899043">
        <ele>74.89453125</ele>
        <time>2025-12-07T08:10:06Z</time>
      </trkpt>
      <trkpt lat="52.279097009450197" lon="8.082498321309686">
        <ele>74.87109375</ele>
        <time>2025-12-07T08:10:16Z</time>
      </trkpt>
      <trkpt lat="52.279186025261879" lon="8.08339417912066">
        <ele>75.23828125</ele>
        <time>2025-12-07T08:10:27Z</time>
      </trkpt>
      <trkpt lat="52.279302030801773" lon="8.084269836544991">
        <ele>76.8203125</ele>
        <time>2025-12-07T08:10:38Z</time>
      </trkpt>
      <trkpt lat="52.279395740479231" lon="8.085069721564651">
        <ele>78.48828125</ele>
        <time>2025-12-07T08:10:49Z</time>
      </trkpt>
      <trkpt lat="52.27946950122714" lon="8.085828199982643">
        <ele>79.13671875</ele>
        <time>2025-12-07T08:11:00Z</time>
      </trkpt>
      <trkpt lat="52.279558097943664" lon="8.086529681459069">
        <ele>80.13671875</ele>
        <time>2025-12-07T08:11:10Z</time>
      </trkpt>
      <trkpt lat="52.279637306928635" lon="8.087313724681735">
        <ele>81.26953125</ele>
        <time>2025-12-07T08:11:21Z</time>
      </trkpt>
      <trkpt lat="52.279706792905927" lon="8.088074214756489">
        <ele>82.26953125</ele>
        <time>2025-12-07T08:11:31Z</time>
      </trkpt>
      <trkpt lat="52.279803184792399" lon="8.088846858590841">
        <ele>84.01953125</ele>
        <time>2025-12-07T08:11:41Z</time>
      </trkpt>
      <trkpt lat="52.279834784567356" lon="8.089489163830876">
        <ele>86.5546875</ele>
        <time>2025-12-07T08:11:52Z</time>
      </trkpt>
      <trkpt lat="52.281803777441382" lon="8.093277867883444">
        <ele>84.23046875</ele>
        <time>2025-12-07T08:11:57Z</time>
      </trkpt>
      <trkpt lat="52.279532616958022" lon="8.097506789490581">
        <ele>73.7109375</ele>
        <time>2025-12-07T08:12:00Z</time>
      </trkpt>
      <trkpt lat="52.280119433999062" lon="8.099243603646755">
        <ele>74.6484375</ele>
        <time>2025-12-07T08:12:01Z</time>
      </trkpt>
      <trkpt lat="52.277619112282991" lon="8.101828582584858">
        <ele>75.171875</ele>
        <time>2025-12-07T08:12:02Z</time>
      </trkpt>
      <trkpt lat="52.277041096240282" lon="8.101919526234269">
        <ele>74.23828125</ele>
        <time>2025-12-07T08:12:02Z</time>
      </trkpt>
      <trkpt lat="52.276689140126109" lon="8.102548588067293">
        <ele>77.6796875</ele>
        <time>2025-12-07T08:12:02Z</time>
      </trkpt>
      <trkpt lat="52.27586193010211" lon="8.102794429287314">
        <ele>81.5859375</ele>
        <time>2025-12-07T08:12:02Z</time>
      </trkpt>
      <trkpt lat="52.274418901652098" lon="8.101509818807244">
        <ele>70.50390625</ele>
        <time>2025-12-07T08:12:02Z</time>
      </trkpt>
      <trkpt lat="52.273550285026431" lon="8.101485427469015">
        <ele>71.5703125</ele>
        <time>2025-12-07T08:12:02Z</time>
      </trkpt>
      <trkpt lat="52.272440269589424" lon="8.101702518761158">
        <ele>75.6484375</ele>
        <time>2025-12-07T08:12:02Z</time>
      </trkpt>
      <trkpt lat="52.271633176133037" lon="8.099751127883792">
        <ele>74.42578125</ele>
        <time>2025-12-07T08:12:02Z</time>
      </trkpt>
      <trkpt lat="52.271019537001848" lon="8.099805358797312">
        <ele>74.6328125</ele>
        <time>2025-12-07T08:12:02Z</time>
      </trkpt>
      <trkpt lat="52.268821801990271" lon="8.098253197968006">
        <ele>71.5703125</ele>
        <time>2025-12-07T08:12:02Z</time>
      </trkpt>
      <trkpt lat="52.267932984977961" lon="8.100978992879391">
        <ele>72.61328125</ele>
        <time>2025-12-07T08:12:02Z</time>
      </trkpt>
      <trkpt lat="52.267698626965284" lon="8.100968599319458">
        <ele>71.984375</ele>
        <time>2025-12-07T08:12:02Z</time>
      </trkpt>
      <trkpt lat="52.267623525112867" lon="8.099864786490798">
        <ele>70.48828125</ele>
        <time>2025-12-07T08:12:02Z</time>
      </trkpt>
      <trkpt lat="52.264392217621207" lon="8.099381569772959">
        <ele>67.625</ele>
        <time>2025-12-07T08:12:02Z</time>
      </trkpt>
      <trkpt lat="52.262860424816608" lon="8.097835276275873">
        <ele>68.76953125</ele>
        <time>2025-12-07T08:12:02Z</time>
      </trkpt>
      <trkpt lat="52.262430600821972" lon="8.098710095509887">
        <ele>66.9296875</ele>
        <time>2025-12-07T08:12:02Z</time>
      </trkpt>
      <trkpt lat="52.258601160719991" lon="8.09825487434864">
        <ele>71.35546875</ele>
        <time>2025-12-07T08:12:02Z</time>
      </trkpt>
      <trkpt lat="52.258451376110315" lon="8.111485624685884">
        <ele>74.19921875</ele>
        <time>2025-12-07T08:12:02Z</time>
      </trkpt>
      <trkpt lat="52.258420530706644" lon="8.112428924068809">
        <ele>74.375</ele>
        <time>2025-12-07T08:24:10Z</time>
      </trkpt>
      <trkpt lat="52.258427906781435" lon="8.113375240936875">
        <ele>72.390625</ele>
        <time>2025-12-07T08:24:20Z</time>
      </trkpt>
      <trkpt lat="52.258351799100637" lon="8.114448711276054">
        <ele>66.51953125</ele>
        <time>2025-12-07T08:24:31Z</time>
      </trkpt>
      <trkpt lat="52.258285414427519" lon="8.115386059507728">
        <ele>66.89453125</ele>
        <time>2025-12-07T08:24:41Z</time>
      </trkpt>
      <trkpt lat="52.258285917341709" lon="8.116316618397832">
        <ele>70.57421875</ele>
        <time>2025-12-07T08:24:51Z</time>
      </trkpt>
      <trkpt lat="52.257954832166433" lon="8.117166459560394">
        <ele>70.31640625</ele>
        <time>2025-12-07T08:25:02Z</time>
      </trkpt>
      <trkpt lat="52.257486619055271" lon="8.117881519719958">
        <ele>70.5390625</ele>
        <time>2025-12-07T08:25:13Z</time>
      </trkpt>
      <trkpt lat="52.257534898817539" lon="8.118971167132258">
        <ele>71.12890625</ele>
        <time>2025-12-07T08:25:24Z</time>
      </trkpt>
      <trkpt lat="52.257573790848255" lon="8.119898792356253">
        <ele>71.98046875</ele>
        <time>2025-12-07T08:25:35Z</time>
      </trkpt>
      <trkpt lat="52.257594410330057" lon="8.120708735659719">
        <ele>71.5</ele>
        <time>2025-12-07T08:25:45Z</time>
      </trkpt>
      <trkpt lat="52.258021803572774" lon="8.121385825797916">
        <ele>69.12890625</ele>
        <time>2025-12-07T08:25:56Z</time>
      </trkpt>
      <trkpt lat="52.25815013051033" lon="8.122391905635595">
        <ele>68.01171875</ele>
        <time>2025-12-07T08:26:07Z</time>
      </trkpt>
      <trkpt lat="52.258364036679268" lon="8.123434279114008">
        <ele>67.78515625</ele>
        <time>2025-12-07T08:26:18Z</time>
      </trkpt>
      <trkpt lat="52.258953200653195" lon="8.124060658738017">
        <ele>68.59765625</ele>
        <time>2025-12-07T08:26:29Z</time>
      </trkpt>
      <trkpt lat="52.259474638849497" lon="8.124658036977053">
        <ele>70.16015625</ele>
        <time>2025-12-07T08:26:39Z</time>
      </trkpt>
      <trkpt lat="52.259926507249475" lon="8.12530386261642">
        <ele>70.9140625</ele>
        <time>2025-12-07T08:26:49Z</time>
      </trkpt>
      <trkpt lat="52.260331604629755" lon="8.126132832840085">
        <ele>70.8828125</ele>
        <time>2025-12-07T08:27:00Z</time>
      </trkpt>
      <trkpt lat="52.260545594617724" lon="8.127167662605643">
        <ele>70.86328125</ele>
        <time>2025-12-07T08:27:11Z</time>
      </trkpt>
      <trkpt lat="52.26075891405344" lon="8.128239121288061">
        <ele>71.76953125</ele>
        <time>2025-12-07T08:27:22Z</time>
      </trkpt>
      <trkpt lat="52.260968713089824" lon="8.129232292994857">
        <ele>72.45703125</ele>
        <time>2025-12-07T08:27:33Z</time>
      </trkpt>
      <trkpt lat="52.261152863502502" lon="8.130147429183126">
        <ele>71.73046875</ele>
        <time>2025-12-07T08:27:43Z</time>
      </trkpt>
      <trkpt lat="52.261322680860758" lon="8.13121385872364">
        <ele>71.390625</ele>
        <time>2025-12-07T08:27:54Z</time>
      </trkpt>
      <trkpt lat="52.261477159336209" lon="8.13220183365047">
        <ele>72.34765625</ele>
        <time>2025-12-07T08:28:05Z</time>
      </trkpt>
      <trkpt lat="52.261083628982306" lon="8.132796362042427">
        <ele>70.37890625</ele>
        <time>2025-12-07T08:28:15Z</time>
      </trkpt>
      <trkpt lat="52.260574763640761" lon="8.133371360599995">
        <ele>68.80078125</ele>
        <time>2025-12-07T08:28:25Z</time>
      </trkpt>
      <trkpt lat="52.260015774518251" lon="8.133971840143204">
        <ele>67.45703125</ele>
        <time>2025-12-07T08:28:36Z</time>
      </trkpt>
      <trkpt lat="52.259555272758007" lon="8.134465198963881">
        <ele>68.078125</ele>
        <time>2025-12-07T08:28:46Z</time>
      </trkpt>
      <trkpt lat="52.259048838168383" lon="8.135091830044985">
        <ele>68.9375</ele>
        <time>2025-12-07T08:28:57Z</time>
      </trkpt>
      <trkpt lat="52.258556988090277" lon="8.135749893262982">
        <ele>69.4453125</ele>
        <time>2025-12-07T08:29:08Z</time>
      </trkpt>
      <trkpt lat="52.258116435259581" lon="8.136408710852265">
        <ele>69.3046875</ele>
        <time>2025-12-07T08:29:18Z</time>
      </trkpt>
      <trkpt lat="52.257695579901338" lon="8.137039532884955">
        <ele>69</ele>
        <time>2025-12-07T08:29:28Z</time>
      </trkpt>
      <trkpt lat="52.257367093116045" lon="8.137907395139337">
        <ele>69</ele>
        <time>2025-12-07T08:29:39Z</time>
      </trkpt>
      <trkpt lat="52.25731017999351" lon="8.138897884637117">
        <ele>70.26953125</ele>
        <time>2025-12-07T08:29:50Z</time>
      </trkpt>
      <trkpt lat="52.257587788626552" lon="8.139642113819718">
        <ele>69.8515625</ele>
        <time>2025-12-07T08:30:00Z</time>
      </trkpt>
      <trkpt lat="52.257344294339418" lon="8.14033261500299">
        <ele>69.94140625</ele>
        <time>2025-12-07T08:30:11Z</time>
      </trkpt>
      <trkpt lat="52.256844900548458" lon="8.141011297702789">
        <ele>70.89453125</ele>
        <time>2025-12-07T08:30:22Z</time>
      </trkpt>
      <trkpt lat="52.256389008834958" lon="8.141644131392241">
        <ele>70.25390625</ele>
        <time>2025-12-07T08:30:32Z</time>
      </trkpt>
      <trkpt lat="52.256001010537148" lon="8.142382660880685">
        <ele>69.77734375</ele>
        <time>2025-12-07T08:30:42Z</time>
      </trkpt>
      <trkpt lat="52.255595494061708" lon="8.143050614744425">
        <ele>70.15625</ele>
        <time>2025-12-07T08:30:52Z</time>
      </trkpt>
      <trkpt lat="52.255603792145848" lon="8.143899366259575">
        <ele>70.7265625</ele>
        <time>2025-12-07T08:31:03Z</time>
      </trkpt>
      <trkpt lat="52.255510417744517" lon="8.144924640655518">
        <ele>70.31640625</ele>
        <time>2025-12-07T08:31:13Z</time>
      </trkpt>
      <trkpt lat="52.255340935662389" lon="8.146137166768313">
        <ele>70.30859375</ele>
        <time>2025-12-07T08:31:24Z</time>
      </trkpt>
      <trkpt lat="52.255461299791932" lon="8.147214241325855">
        <ele>70.65234375</ele>
        <time>2025-12-07T08:31:35Z</time>
      </trkpt>
      <trkpt lat="52.255818620324135" lon="8.14812527038157">
        <ele>71.140625</ele>
        <time>2025-12-07T08:31:46Z</time>
      </trkpt>
      <trkpt lat="52.25622539408505" lon="8.148859106004238">
        <ele>69.37890625</ele>
        <time>2025-12-07T08:31:56Z</time>
      </trkpt>
      <trkpt lat="52.25660408847034" lon="8.149499734863639">
        <ele>68.046875</ele>
        <time>2025-12-07T08:32:06Z</time>
      </trkpt>
      <trkpt lat="52.256737360730767" lon="8.149705762043595">
        <ele>68.17578125</ele>
        <time>2025-12-07T08:32:17Z</time>
      </trkpt>
      <trkpt lat="52.256606016308069" lon="8.14994883723557">
        <ele>68.12109375</ele>
        <time>2025-12-07T08:32:27Z</time>
      </trkpt>
      <trkpt lat="52.256084997206926" lon="8.150383941829205">
        <ele>68.91015625</ele>
        <time>2025-12-07T08:32:38Z</time>
      </trkpt>
      <trkpt lat="52.255567498505116" lon="8.15076095983386">
        <ele>70</ele>
        <time>2025-12-07T08:32:48Z</time>
      </trkpt>
      <trkpt lat="52.255010018125176" lon="8.15120947547257">
        <ele>70.4609375</ele>
        <time>2025-12-07T08:32:59Z</time>
      </trkpt>
      <trkpt lat="52.25453962571919" lon="8.151996033266187">
        <ele>70.4453125</ele>
        <time>2025-12-07T08:33:10Z</time>
      </trkpt>
      <trkpt lat="52.254265118390322" lon="8.152906727045775">
        <ele>70</ele>
        <time>2025-12-07T08:33:21Z</time>
      </trkpt>
      <trkpt lat="52.253984827548265" lon="8.153823791071773">
        <ele>70.58984375</ele>
        <time>2025-12-07T08:33:32Z</time>
      </trkpt>
      <trkpt lat="52.253684168681502" lon="8.154733562842012">
        <ele>73.00390625</ele>
        <time>2025-12-07T08:33:43Z</time>
      </trkpt>
      <trkpt lat="52.253417121246457" lon="8.155557420104742">
        <ele>74.5859375</ele>
        <time>2025-12-07T08:33:53Z</time>
      </trkpt>
      <trkpt lat="52.253084694966674" lon="8.156371470540762">
        <ele>74.80859375</ele>
        <time>2025-12-07T08:34:04Z</time>
      </trkpt>
      <trkpt lat="52.252732738852501" lon="8.157174037769437">
        <ele>75.390625</ele>
        <time>2025-12-07T08:34:15Z</time>
      </trkpt>
      <trkpt lat="52.252437360584736" lon="8.158055394887924">
        <ele>74.73828125</ele>
        <time>2025-12-07T08:34:26Z</time>
      </trkpt>
      <trkpt lat="52.252331916242838" lon="8.158842036500573">
        <ele>73.421875</ele>
        <time>2025-12-07T08:34:37Z</time>
      </trkpt>
      <trkpt lat="52.252226723358035" lon="8.159688860177994">
        <ele>72.4296875</ele>
        <time>2025-12-07T08:34:47Z</time>
      </trkpt>
      <trkpt lat="52.252115663141012" lon="8.160506095737219">
        <ele>72.9765625</ele>
        <time>2025-12-07T08:34:57Z</time>
      </trkpt>
      <trkpt lat="52.251873258501291" lon="8.161294162273407">
        <ele>76.125</ele>
        <time>2025-12-07T08:35:08Z</time>
      </trkpt>
      <trkpt lat="52.251567402854562" lon="8.161768577992916">
        <ele>78.26953125</ele>
        <time>2025-12-07T08:35:18Z</time>
      </trkpt>
      <trkpt lat="52.251192731782794" lon="8.162224385887384">
        <ele>78.94921875</ele>
        <time>2025-12-07T08:35:29Z</time>
      </trkpt>
      <trkpt lat="52.250869609415531" lon="8.162624705582857">
        <ele>79.00390625</ele>
        <time>2025-12-07T08:35:39Z</time>
      </trkpt>
      <trkpt lat="52.250688225030899" lon="8.162869121879339">
        <ele>78.921875</ele>
        <time>2025-12-07T08:35:50Z</time>
      </trkpt>
      <trkpt lat="52.250210959464312" lon="8.163488963618875">
        <ele>79.29296875</ele>
        <time>2025-12-07T08:36:23Z</time>
      </trkpt>
      <trkpt lat="52.249721707776189" lon="8.16414250060916">
        <ele>79.6171875</ele>
        <time>2025-12-07T08:36:34Z</time>
      </trkpt>
      <trkpt lat="52.249296996742487" lon="8.164836103096604">
        <ele>80.7578125</ele>
        <time>2025-12-07T08:36:45Z</time>
      </trkpt>
      <trkpt lat="52.248940262943506" lon="8.165530627593398">
        <ele>83.08984375</ele>
        <time>2025-12-07T08:36:56Z</time>
      </trkpt>
      <trkpt lat="52.248671287670732" lon="8.16627343185246">
        <ele>84.74609375</ele>
        <time>2025-12-07T08:37:07Z</time>
      </trkpt>
      <trkpt lat="52.248439695686102" lon="8.167042639106512">
        <ele>86.8828125</ele>
        <time>2025-12-07T08:37:18Z</time>
      </trkpt>
      <trkpt lat="52.248223358765244" lon="8.167817126959562">
        <ele>90.4453125</ele>
        <time>2025-12-07T08:37:28Z</time>
      </trkpt>
      <trkpt lat="52.248022612184286" lon="8.168722791597247">
        <ele>94.12890625</ele>
        <time>2025-12-07T08:37:39Z</time>
      </trkpt>
      <trkpt lat="52.247804012149572" lon="8.169678160920739">
        <ele>91.640625</ele>
        <time>2025-12-07T08:37:50Z</time>
      </trkpt>
      <trkpt lat="52.247623382136226" lon="8.170565133914352">
        <ele>90.76171875</ele>
        <time>2025-12-07T08:38:00Z</time>
      </trkpt>
      <trkpt lat="52.247411487624049" lon="8.171510361135006">
        <ele>90.59765625</ele>
        <time>2025-12-07T08:38:11Z</time>
      </trkpt>
      <trkpt lat="52.247142093256116" lon="8.172352826222777">
        <ele>92.45703125</ele>
        <time>2025-12-07T08:38:22Z</time>
      </trkpt>
      <trkpt lat="52.246442120522261" lon="8.172664381563664">
        <ele>84.50390625</ele>
        <time>2025-12-07T08:38:33Z</time>
      </trkpt>
      <trkpt lat="52.245749104768038" lon="8.172756833955646">
        <ele>80.71875</ele>
        <time>2025-12-07T08:38:43Z</time>
      </trkpt>
      <trkpt lat="52.245266307145357" lon="8.172836462035775">
        <ele>79.41796875</ele>
        <time>2025-12-07T08:38:53Z</time>
      </trkpt>
      <trkpt lat="52.245202772319317" lon="8.173729972913861">
        <ele>79.43359375</ele>
        <time>2025-12-07T08:39:04Z</time>
      </trkpt>
      <trkpt lat="52.245175112038851" lon="8.174553159624338">
        <ele>78.8203125</ele>
        <time>2025-12-07T08:39:14Z</time>
      </trkpt>
      <trkpt lat="52.245129514485598" lon="8.175524119287729">
        <ele>79.31640625</ele>
        <time>2025-12-07T08:39:25Z</time>
      </trkpt>
      <trkpt lat="52.245124569162726" lon="8.176408493891358">
        <ele>80.3671875</ele>
        <time>2025-12-07T08:39:35Z</time>
      </trkpt>
      <trkpt lat="52.245110403746367" lon="8.177327401936054">
        <ele>79.890625</ele>
        <time>2025-12-07T08:39:45Z</time>
      </trkpt>
      <trkpt lat="52.245105961337686" lon="8.178245471790433">
        <ele>78.4921875</ele>
        <time>2025-12-07T08:39:56Z</time>
      </trkpt>
      <trkpt lat="52.244918122887611" lon="8.179397564381361">
        <ele>76.33203125</ele>
        <time>2025-12-07T08:40:01Z</time>
      </trkpt>
      <trkpt lat="52.246211534366012" lon="8.186771376058459">
        <ele>81.80078125</ele>
        <time>2025-12-07T08:40:04Z</time>
      </trkpt>
      <trkpt lat="52.247236473485827" lon="8.188329823315144">
        <ele>86.734375</ele>
        <time>2025-12-07T08:40:05Z</time>
      </trkpt>
      <trkpt lat="52.248035268858075" lon="8.188683707267046">
        <ele>84.1875</ele>
        <time>2025-12-07T08:42:47Z</time>
      </trkpt>
      <trkpt lat="52.248523766174912" lon="8.189320731908083">
        <ele>84.43359375</ele>
        <time>2025-12-07T08:42:57Z</time>
      </trkpt>
      <trkpt lat="52.249043276533484" lon="8.190236203372479">
        <ele>84.296875</ele>
        <time>2025-12-07T08:43:08Z</time>
      </trkpt>
      <trkpt lat="52.249544933438301" lon="8.191184867173433">
        <ele>81.265625</ele>
        <time>2025-12-07T08:43:19Z</time>
      </trkpt>
      <trkpt lat="52.250116830691695" lon="8.192105535417795">
        <ele>75.8203125</ele>
        <time>2025-12-07T08:43:30Z</time>
      </trkpt>
      <trkpt lat="52.250647908076644" lon="8.192926710471511">
        <ele>76.50390625</ele>
        <time>2025-12-07T08:43:40Z</time>
      </trkpt>
      <trkpt lat="52.251114193350077" lon="8.193911835551262">
        <ele>77.14453125</ele>
        <time>2025-12-07T08:43:51Z</time>
      </trkpt>
      <trkpt lat="52.251490037888288" lon="8.19485136307776">
        <ele>75.375</ele>
        <time>2025-12-07T08:44:01Z</time>
      </trkpt>
      <trkpt lat="52.251886166632175" lon="8.195873703807592">
        <ele>74.9609375</ele>
        <time>2025-12-07T08:44:12Z</time>
      </trkpt>
      <trkpt lat="52.251084186136723" lon="8.198952209204435">
        <ele>75.75</ele>
        <time>2025-12-07T08:44:17Z</time>
      </trkpt>
      <trkpt lat="52.250599041581154" lon="8.204096266999841">
        <ele>73.47265625</ele>
        <time>2025-12-07T08:44:19Z</time>
      </trkpt>
      <trkpt lat="52.250272398814559" lon="8.207732671871781">
        <ele>74.19140625</ele>
        <time>2025-12-07T08:44:20Z</time>
      </trkpt>
      <trkpt lat="52.249100189656019" lon="8.212503483518958">
        <ele>74.11328125</ele>
        <time>2025-12-07T08:44:21Z</time>
      </trkpt>
      <trkpt lat="52.247441997751594" lon="8.215403789654374">
        <ele>76.1640625</ele>
        <time>2025-12-07T08:44:21Z</time>
      </trkpt>
      <trkpt lat="52.24938752129674" lon="8.216716730967164">
        <ele>74.96484375</ele>
        <time>2025-12-07T08:44:21Z</time>
      </trkpt>
      <trkpt lat="52.250549420714378" lon="8.218231424689293">
        <ele>72.86328125</ele>
        <time>2025-12-07T08:44:21Z</time>
      </trkpt>
      <trkpt lat="52.251592800021172" lon="8.219023095443845">
        <ele>74.23046875</ele>
        <time>2025-12-07T08:44:21Z</time>
      </trkpt>
      <trkpt lat="52.255077911540866" lon="8.220036970451474">
        <ele>79.859375</ele>
        <time>2025-12-07T08:44:21Z</time>
      </trkpt>
      <trkpt lat="52.254487490281463" lon="8.221436496824026">
        <ele>76.3125</ele>
        <time>2025-12-07T08:44:21Z</time>
      </trkpt>
      <trkpt lat="52.254613135010004" lon="8.230317961424589">
        <ele>75.65625</ele>
        <time>2025-12-07T08:44:21Z</time>
      </trkpt>
      <trkpt lat="52.261106511577964" lon="8.234758693724871">
        <ele>81.14453125</ele>
        <time>2025-12-07T08:44:21Z</time>
      </trkpt>
      <trkpt lat="52.261726269498467" lon="8.234404139220715">
        <ele>81.21875</ele>
        <time>2025-12-07T08:44:21Z</time>
      </trkpt>
      <trkpt lat="52.263906318694353" lon="8.232098277658224">
        <ele>79.85546875</ele>
        <time>2025-12-07T08:44:21Z</time>
      </trkpt>
      <trkpt lat="52.265017172321677" lon="8.232387285679579">
        <ele>82.14453125</ele>
        <time>2025-12-07T08:44:21Z</time>
      </trkpt>
      <trkpt lat="52.265467615798116" lon="8.23247286491096">
        <ele>82.7734375</ele>
        <time>2025-12-07T08:54:04Z</time>
      </trkpt>
      <trkpt lat="52.265993496403098" lon="8.232513265684247">
        <ele>83.40625</ele>
        <time>2025-12-07T08:54:14Z</time>
      </trkpt>
      <trkpt lat="52.266480820253491" lon="8.232565736398101">
        <ele>83.9921875</ele>
        <time>2025-12-07T08:54:24Z</time>
      </trkpt>
      <trkpt lat="52.266771337017417" lon="8.233252884820104">
        <ele>85.01953125</ele>
        <time>2025-12-07T08:54:34Z</time>
      </trkpt>
      <trkpt lat="52.267128909006715" lon="8.23393726721406">
        <ele>87.80078125</ele>
        <time>2025-12-07T08:54:45Z</time>
      </trkpt>
      <trkpt lat="52.267603492364287" lon="8.234354434534907">
        <ele>89.015625</ele>
        <time>2025-12-07T08:54:56Z</time>
      </trkpt>
      <trkpt lat="52.268067095428705" lon="8.234641179442406">
        <ele>89.7734375</ele>
        <time>2025-12-07T08:55:07Z</time>
      </trkpt>
      <trkpt lat="52.268518209457397" lon="8.235001433640719">
        <ele>91.3125</ele>
        <time>2025-12-07T08:55:18Z</time>
      </trkpt>
      <trkpt lat="52.268890365958214" lon="8.235422540456057">
        <ele>92.65625</ele>
        <time>2025-12-07T08:55:28Z</time>
      </trkpt>
      <trkpt lat="52.269206531345844" lon="8.23585856705904">
        <ele>93.79296875</ele>
        <time>2025-12-07T08:55:38Z</time>
      </trkpt>
      <trkpt lat="52.269491599872708" lon="8.236294258385897">
        <ele>94.8203125</ele>
        <time>2025-12-07T08:55:48Z</time>
      </trkpt>
      <trkpt lat="52.269794018939137" lon="8.236725088208914">
        <ele>96.00390625</ele>
        <time>2025-12-07T08:55:59Z</time>
      </trkpt>
      <trkpt lat="52.270062994211912" lon="8.237070590257645">
        <ele>98.12109375</ele>
        <time>2025-12-07T08:56:09Z</time>
      </trkpt>
      <trkpt lat="52.270347476005554" lon="8.237426737323403">
        <ele>100.69921875</ele>
        <time>2025-12-07T08:56:19Z</time>
      </trkpt>
      <trkpt lat="52.270659282803535" lon="8.237786237150431">
        <ele>103.78125</ele>
        <time>2025-12-07T08:56:30Z</time>
      </trkpt>
      <trkpt lat="52.270978717133403" lon="8.238034509122372">
        <ele>106.94140625</ele>
        <time>2025-12-07T08:56:40Z</time>
      </trkpt>
      <trkpt lat="52.271303264424205" lon="8.238203320652247">
        <ele>110.578125</ele>
        <time>2025-12-07T08:56:50Z</time>
      </trkpt>
      <trkpt lat="52.271600738167763" lon="8.238321337848902">
        <ele>113.49609375</ele>
        <time>2025-12-07T08:57:00Z</time>
      </trkpt>
      <trkpt lat="52.271916316822171" lon="8.238468440249562">
        <ele>116.42578125</ele>
        <time>2025-12-07T08:57:11Z</time>
      </trkpt>
      <trkpt lat="52.272237427532673" lon="8.238488472998142">
        <ele>118.1484375</ele>
        <time>2025-12-07T08:57:22Z</time>
      </trkpt>
      <trkpt lat="52.272612098604441" lon="8.238539434969425">
        <ele>119.640625</ele>
        <time>2025-12-07T08:57:33Z</time>
      </trkpt>
      <trkpt lat="52.273004204034805" lon="8.238633815199137">
        <ele>120.8671875</ele>
        <time>2025-12-07T08:57:43Z</time>
      </trkpt>
      <trkpt lat="52.273349622264504" lon="8.238718388602138">
        <ele>122.27734375</ele>
        <time>2025-12-07T08:57:53Z</time>
      </trkpt>
      <trkpt lat="52.273723790422082" lon="8.238816037774086">
        <ele>124.2109375</ele>
        <time>2025-12-07T08:58:04Z</time>
      </trkpt>
      <trkpt lat="52.274159230291843" lon="8.238928439095616">
        <ele>125.77734375</ele>
        <time>2025-12-07T08:58:14Z</time>
      </trkpt>
      <trkpt lat="52.274667005985975" lon="8.238985603675246">
        <ele>127.125</ele>
        <time>2025-12-07T08:58:24Z</time>
      </trkpt>
      <trkpt lat="52.275124825537205" lon="8.238796591758728">
        <ele>126.0078125</ele>
        <time>2025-12-07T08:58:35Z</time>
      </trkpt>
      <trkpt lat="52.275450462475419" lon="8.238948388025165">
        <ele>127.859375</ele>
        <time>2025-12-07T08:58:45Z</time>
      </trkpt>
      <trkpt lat="52.275863690301776" lon="8.239107308909297">
        <ele>129.1171875</ele>
        <time>2025-12-07T08:58:56Z</time>
      </trkpt>
      <trkpt lat="52.27629535831511" lon="8.239270588383079">
        <ele>129.60546875</ele>
        <time>2025-12-07T08:59:07Z</time>
      </trkpt>
      <trkpt lat="52.276768181473017" lon="8.239443423226476">
        <ele>129.03125</ele>
        <time>2025-12-07T08:59:17Z</time>
      </trkpt>
      <trkpt lat="52.277443259954453" lon="8.239720277488232">
        <ele>127.53515625</ele>
        <time>2025-12-07T08:59:28Z</time>
      </trkpt>
      <trkpt lat="52.278058407828212" lon="8.239939631894231">
        <ele>122.76171875</ele>
        <time>2025-12-07T08:59:38Z</time>
      </trkpt>
      <trkpt lat="52.278599292039871" lon="8.239999059587717">
        <ele>115.55859375</ele>
        <time>2025-12-07T08:59:48Z</time>
      </trkpt>
      <trkpt lat="52.27909273467958" lon="8.240164015442133">
        <ele>110.52734375</ele>
        <time>2025-12-07T08:59:58Z</time>
      </trkpt>
      <trkpt lat="52.279399679973722" lon="8.240657122805715">
        <ele>111.01953125</ele>
        <time>2025-12-07T09:00:09Z</time>
      </trkpt>
      <trkpt lat="52.279597828164697" lon="8.240430308505893">
        <ele>109.4765625</ele>
        <time>2025-12-07T09:00:14Z</time>
      </trkpt>
      <trkpt lat="52.281303713098168" lon="8.244883110746741">
        <ele>106.84765625</ele>
        <time>2025-12-07T09:00:17Z</time>
      </trkpt>
      <trkpt lat="52.281536981463432" lon="8.245804868638516">
        <ele>108.4140625</ele>
        <time>2025-12-07T09:00:18Z</time>
      </trkpt>
      <trkpt lat="52.282535769045353" lon="8.247072631493211">
        <ele>106.28515625</ele>
        <time>2025-12-07T09:00:19Z</time>
      </trkpt>
      <trkpt lat="52.285610334947705" lon="8.24870266020298">
        <ele>92.5703125</ele>
        <time>2025-12-07T09:00:19Z</time>
      </trkpt>
      <trkpt lat="52.286811461672187" lon="8.250616416335106">
        <ele>89.8828125</ele>
        <time>2025-12-07T09:00:19Z</time>
      </trkpt>
      <trkpt lat="52.292309235781431" lon="8.263454474508762">
        <ele>89.80859375</ele>
        <time>2025-12-07T09:00:19Z</time>
      </trkpt>
      <trkpt lat="52.293252116069198" lon="8.261462096124888">
        <ele>88.109375</ele>
        <time>2025-12-07T09:00:19Z</time>
      </trkpt>
      <trkpt lat="52.295403331518173" lon="8.259538868442178">
        <ele>89.71875</ele>
        <time>2025-12-07T09:00:19Z</time>
      </trkpt>
      <trkpt lat="52.29822157882154" lon="8.253393173217773">
        <ele>98.87109375</ele>
        <time>2025-12-07T09:00:19Z</time>
      </trkpt>
      <trkpt lat="52.299189688637853" lon="8.252620613202453">
        <ele>100.2890625</ele>
        <time>2025-12-07T09:00:19Z</time>
      </trkpt>
      <trkpt lat="52.299652704969049" lon="8.252680627629161">
        <ele>99.10546875</ele>
        <time>2025-12-07T09:00:19Z</time>
      </trkpt>
      <trkpt lat="52.300403136759996" lon="8.253086395561695">
        <ele>98.26171875</ele>
        <time>2025-12-07T09:09:58Z</time>
      </trkpt>
      <trkpt lat="52.301058014854789" lon="8.253689305856824">
        <ele>97.5859375</ele>
        <time>2025-12-07T09:10:09Z</time>
      </trkpt>
      <trkpt lat="52.301580961793661" lon="8.254349464550614">
        <ele>97.12109375</ele>
        <time>2025-12-07T09:10:19Z</time>
      </trkpt>
      <trkpt lat="52.302179094403982" lon="8.255000319331884">
        <ele>97.64453125</ele>
        <time>2025-12-07T09:10:30Z</time>
      </trkpt>
      <trkpt lat="52.302793823182583" lon="8.255242640152574">
        <ele>98.328125</ele>
        <time>2025-12-07T09:10:41Z</time>
      </trkpt>
      <trkpt lat="52.303353985771537" lon="8.25509537011385">
        <ele>99.34765625</ele>
        <time>2025-12-07T09:10:51Z</time>
      </trkpt>
      <trkpt lat="52.303822701796889" lon="8.254931168630719">
        <ele>99.96875</ele>
        <time>2025-12-07T09:11:02Z</time>
      </trkpt>
      <trkpt lat="52.304191002622247" lon="8.254932006821036">
        <ele>101.7421875</ele>
        <time>2025-12-07T09:11:12Z</time>
      </trkpt>
      <trkpt lat="52.304546814411879" lon="8.254921864718199">
        <ele>104.28515625</ele>
        <time>2025-12-07T09:11:22Z</time>
      </trkpt>
      <trkpt lat="52.304891562089324" lon="8.254953715950251">
        <ele>106.6875</ele>
        <time>2025-12-07T09:11:33Z</time>
      </trkpt>
      <trkpt lat="52.305181995034218" lon="8.25498347170651">
        <ele>108.78515625</ele>
        <time>2025-12-07T09:11:43Z</time>
      </trkpt>
      <trkpt lat="52.305475194007158" lon="8.255013562738895">
        <ele>110.8984375</ele>
        <time>2025-12-07T09:11:53Z</time>
      </trkpt>
      <trkpt lat="52.30579923838377" lon="8.255046419799328">
        <ele>113.03125</ele>
        <time>2025-12-07T09:12:04Z</time>
      </trkpt>
      <trkpt lat="52.306124707683921" lon="8.255076259374619">
        <ele>115.04296875</ele>
        <time>2025-12-07T09:12:15Z</time>
      </trkpt>
      <trkpt lat="52.306413128972054" lon="8.255107440054417">
        <ele>116.8515625</ele>
        <time>2025-12-07T09:12:25Z</time>
      </trkpt>
      <trkpt lat="52.306698365136981" lon="8.255142560228705">
        <ele>119.18359375</ele>
        <time>2025-12-07T09:12:35Z</time>
      </trkpt>
      <trkpt lat="52.307039760053158" lon="8.255173237994313">
        <ele>122.0859375</ele>
        <time>2025-12-07T09:12:46Z</time>
      </trkpt>
      <trkpt lat="52.307370090857148" lon="8.255268707871437">
        <ele>124.59765625</ele>
        <time>2025-12-07T09:12:57Z</time>
      </trkpt>
      <trkpt lat="52.307649040594697" lon="8.2555210031569">
        <ele>126.0703125</ele>
        <time>2025-12-07T09:13:07Z</time>
      </trkpt>
      <trkpt lat="52.307936539873481" lon="8.25586155988276">
        <ele>128.11328125</ele>
        <time>2025-12-07T09:13:18Z</time>
      </trkpt>
      <trkpt lat="52.308236863464117" lon="8.256169678643346">
        <ele>129.94140625</ele>
        <time>2025-12-07T09:13:29Z</time>
      </trkpt>
      <trkpt lat="52.308541713282466" lon="8.256435887888074">
        <ele>132</ele>
        <time>2025-12-07T09:13:39Z</time>
      </trkpt>
      <trkpt lat="52.308894507586956" lon="8.256520964205265">
        <ele>134.203125</ele>
        <time>2025-12-07T09:13:49Z</time>
      </trkpt>
      <trkpt lat="52.309225341305137" lon="8.256580475717783">
        <ele>135.79296875</ele>
        <time>2025-12-07T09:13:59Z</time>
      </trkpt>
      <trkpt lat="52.309606382623315" lon="8.256647698581219">
        <ele>137.3203125</ele>
        <time>2025-12-07T09:14:10Z</time>
      </trkpt>
      <trkpt lat="52.310004523023963" lon="8.256512163206935">
        <ele>138.31640625</ele>
        <time>2025-12-07T09:14:21Z</time>
      </trkpt>
      <trkpt lat="52.31012849137187" lon="8.255755361169577">
        <ele>137.43359375</ele>
        <time>2025-12-07T09:14:32Z</time>
      </trkpt>
      <trkpt lat="52.310153972357512" lon="8.25486620888114">
        <ele>138.140625</ele>
        <time>2025-12-07T09:14:42Z</time>
      </trkpt>
      <trkpt lat="52.310124970972538" lon="8.253982588648796">
        <ele>139.09375</ele>
        <time>2025-12-07T09:14:52Z</time>
      </trkpt>
      <trkpt lat="52.310038302093744" lon="8.25319460593164">
        <ele>138.74609375</ele>
        <time>2025-12-07T09:15:03Z</time>
      </trkpt>
      <trkpt lat="52.309952136129141" lon="8.252339400351048">
        <ele>139.05859375</ele>
        <time>2025-12-07T09:15:14Z</time>
      </trkpt>
      <trkpt lat="52.309868903830647" lon="8.251572959125042">
        <ele>139.25</ele>
        <time>2025-12-07T09:15:24Z</time>
      </trkpt>
      <trkpt lat="52.309780810028315" lon="8.250716160982847">
        <ele>140.28515625</ele>
        <time>2025-12-07T09:15:35Z</time>
      </trkpt>
      <trkpt lat="52.309694727882743" lon="8.249846370890737">
        <ele>143.85546875</ele>
        <time>2025-12-07T09:15:46Z</time>
      </trkpt>
      <trkpt lat="52.309599928557873" lon="8.249027375131846">
        <ele>147</ele>
        <time>2025-12-07T09:15:56Z</time>
      </trkpt>
      <trkpt lat="52.309507979080081" lon="8.248012661933899">
        <ele>145.30078125</ele>
        <time>2025-12-07T09:16:07Z</time>
      </trkpt>
      <trkpt lat="52.309383088722825" lon="8.246737439185381">
        <ele>141.734375</ele>
        <time>2025-12-07T09:16:18Z</time>
      </trkpt>
      <trkpt lat="52.309276638552547" lon="8.245412176474929">
        <ele>136.55078125</ele>
        <time>2025-12-07T09:16:28Z</time>
      </trkpt>
      <trkpt lat="52.30916541069746" lon="8.244101162999868">
        <ele>130.50390625</ele>
        <time>2025-12-07T09:16:39Z</time>
      </trkpt>
      <trkpt lat="52.308898866176605" lon="8.242955440655351">
        <ele>130.4765625</ele>
        <time>2025-12-07T09:16:50Z</time>
      </trkpt>
      <trkpt lat="52.308530900627375" lon="8.241932932287455">
        <ele>130.3828125</ele>
        <time>2025-12-07T09:17:01Z</time>
      </trkpt>
      <trkpt lat="52.30821113102138" lon="8.241045540198684">
        <ele>128.6640625</ele>
        <time>2025-12-07T09:17:11Z</time>
      </trkpt>
      <trkpt lat="52.308298721909523" lon="8.240656368434429">
        <ele>129.72265625</ele>
        <time>2025-12-07T09:17:22Z</time>
      </trkpt>
      <trkpt lat="52.308770706877112" lon="8.240876058116555">
        <ele>133.3359375</ele>
        <time>2025-12-07T09:17:33Z</time>
      </trkpt>
      <trkpt lat="52.309166919440031" lon="8.241047719493508">
        <ele>136.125</ele>
        <time>2025-12-07T09:17:44Z</time>
      </trkpt>
      <trkpt lat="52.309531196951866" lon="8.24121636338532">
        <ele>138.28515625</ele>
        <time>2025-12-07T09:17:54Z</time>
      </trkpt>
      <trkpt lat="52.309932690113783" lon="8.24139665812254">
        <ele>140.09375</ele>
        <time>2025-12-07T09:18:05Z</time>
      </trkpt>
      <trkpt lat="52.310380535200238" lon="8.241601930931211">
        <ele>141.21484375</ele>
        <time>2025-12-07T09:18:16Z</time>
      </trkpt>
      <trkpt lat="52.310806000605226" lon="8.241834528744221">
        <ele>142.0234375</ele>
        <time>2025-12-07T09:18:26Z</time>
      </trkpt>
      <trkpt lat="52.31130950152874" lon="8.242138121277094">
        <ele>142.9375</ele>
        <time>2025-12-07T09:18:37Z</time>
      </trkpt>
      <trkpt lat="52.311801686882973" lon="8.242447162047029">
        <ele>143.4609375</ele>
        <time>2025-12-07T09:18:48Z</time>
      </trkpt>
      <trkpt lat="52.312304517254233" lon="8.242746479809284">
        <ele>143.34765625</ele>
        <time>2025-12-07T09:18:58Z</time>
      </trkpt>
      <trkpt lat="52.312939865514636" lon="8.243123330175877">
        <ele>142.2734375</ele>
        <time>2025-12-07T09:19:09Z</time>
      </trkpt>
      <trkpt lat="52.313202721998096" lon="8.242776906117797">
        <ele>143.0703125</ele>
        <time>2025-12-07T09:19:19Z</time>
      </trkpt>
      <trkpt lat="52.313290061429143" lon="8.241824889555574">
        <ele>144.76953125</ele>
        <time>2025-12-07T09:19:30Z</time>
      </trkpt>
      <trkpt lat="52.313387040048838" lon="8.240955183282495">
        <ele>144.7890625</ele>
        <time>2025-12-07T09:19:40Z</time>
      </trkpt>
      <trkpt lat="52.313475804403424" lon="8.240208271890879">
        <ele>144.16015625</ele>
        <time>2025-12-07T09:19:50Z</time>
      </trkpt>
      <trkpt lat="52.313552498817444" lon="8.239479465410113">
        <ele>145.796875</ele>
        <time>2025-12-07T09:20:00Z</time>
      </trkpt>
      <trkpt lat="52.313630701974034" lon="8.238707827404141">
        <ele>148.6484375</ele>
        <time>2025-12-07T09:20:10Z</time>
      </trkpt>
      <trkpt lat="52.313723992556334" lon="8.237769640982151">
        <ele>148.9140625</ele>
        <time>2025-12-07T09:20:21Z</time>
      </trkpt>
      <trkpt lat="52.313830526545644" lon="8.236750066280365">
        <ele>143.828125</ele>
        <time>2025-12-07T09:20:32Z</time>
      </trkpt>
      <trkpt lat="52.313886433839798" lon="8.235780196264386">
        <ele>143.4921875</ele>
        <time>2025-12-07T09:20:42Z</time>
      </trkpt>
      <trkpt lat="52.31383035890758" lon="8.234605137258768">
        <ele>144.4140625</ele>
        <time>2025-12-07T09:20:53Z</time>
      </trkpt>
      <trkpt lat="52.313761627301574" lon="8.233437119051814">
        <ele>141.57421875</ele>
        <time>2025-12-07T09:21:03Z</time>
      </trkpt>
      <trkpt lat="52.313688285648823" lon="8.232234818860889">
        <ele>142.421875</ele>
        <time>2025-12-07T09:21:13Z</time>
      </trkpt>
      <trkpt lat="52.314027585089207" lon="8.231037715449929">
        <ele>136.37109375</ele>
        <time>2025-12-07T09:21:24Z</time>
      </trkpt>
      <trkpt lat="52.314629489555955" lon="8.2299979403615">
        <ele>128.4140625</ele>
        <time>2025-12-07T09:21:35Z</time>
      </trkpt>
      <trkpt lat="52.315110107883811" lon="8.229193696752191">
        <ele>128.37109375</ele>
        <time>2025-12-07T09:21:46Z</time>
      </trkpt>
      <trkpt lat="52.315561724826694" lon="8.228857414796948">
        <ele>125.64453125</ele>
        <time>2025-12-07T09:21:57Z</time>
      </trkpt>
      <trkpt lat="52.316276198253036" lon="8.229406261816621">
        <ele>126.71875</ele>
        <time>2025-12-07T09:22:08Z</time>
      </trkpt>
      <trkpt lat="52.317205835133791" lon="8.230086537078023">
        <ele>118.734375</ele>
        <time>2025-12-07T09:22:18Z</time>
      </trkpt>
      <trkpt lat="52.318362789228559" lon="8.230369174852967">
        <ele>110.10546875</ele>
        <time>2025-12-07T09:22:28Z</time>
      </trkpt>
      <trkpt lat="52.319540362805128" lon="8.230350064113736">
        <ele>107.74609375</ele>
        <time>2025-12-07T09:22:39Z</time>
      </trkpt>
      <trkpt lat="52.320578880608082" lon="8.230393063277006">
        <ele>107.9296875</ele>
        <time>2025-12-07T09:22:50Z</time>
      </trkpt>
      <trkpt lat="52.32166307978332" lon="8.230094164609909">
        <ele>99.7578125</ele>
        <time>2025-12-07T09:23:01Z</time>
      </trkpt>
      <trkpt lat="52.322586597874761" lon="8.230409324169159">
        <ele>94.390625</ele>
        <time>2025-12-07T09:23:12Z</time>
      </trkpt>
      <trkpt lat="52.323269136250019" lon="8.230285607278347">
        <ele>90.7421875</ele>
        <time>2025-12-07T09:23:23Z</time>
      </trkpt>
      <trkpt lat="52.324034739285707" lon="8.230141438543797">
        <ele>86.3203125</ele>
        <time>2025-12-07T09:23:34Z</time>
      </trkpt>
      <trkpt lat="52.32451711781323" lon="8.230832275003195">
        <ele>82.64453125</ele>
        <time>2025-12-07T09:23:44Z</time>
      </trkpt>
      <trkpt lat="52.325081387534738" lon="8.232008926570416">
        <ele>80.7109375</ele>
        <time>2025-12-07T09:23:55Z</time>
      </trkpt>
      <trkpt lat="52.32540643773973" lon="8.233279120177031">
        <ele>78.015625</ele>
        <time>2025-12-07T09:24:05Z</time>
      </trkpt>
      <trkpt lat="52.325726794078946" lon="8.234506985172629">
        <ele>74.72265625</ele>
        <time>2025-12-07T09:24:16Z</time>
      </trkpt>
      <trkpt lat="52.326153684407473" lon="8.234976036474109">
        <ele>72.140625</ele>
        <time>2025-12-07T09:24:26Z</time>
      </trkpt>
      <trkpt lat="52.326934961602092" lon="8.234611339867115">
        <ele>69.6796875</ele>
        <time>2025-12-07T09:24:36Z</time>
      </trkpt>
      <trkpt lat="52.327583637088537" lon="8.234293665736914">
        <ele>71.5</ele>
        <time>2025-12-07T09:24:46Z</time>
      </trkpt>
      <trkpt lat="52.328077498823404" lon="8.234077077358961">
        <ele>75.1015625</ele>
        <time>2025-12-07T09:24:56Z</time>
      </trkpt>
      <trkpt lat="52.328436076641083" lon="8.233909187838435">
        <ele>79.765625</ele>
        <time>2025-12-07T09:25:06Z</time>
      </trkpt>
      <trkpt lat="52.328754337504506" lon="8.233755212277174">
        <ele>83.82421875</ele>
        <time>2025-12-07T09:25:16Z</time>
      </trkpt>
      <trkpt lat="52.329072095453739" lon="8.233661502599716">
        <ele>86.02734375</ele>
        <time>2025-12-07T09:25:26Z</time>
      </trkpt>
      <trkpt lat="52.329414412379265" lon="8.23356251232326">
        <ele>85.8515625</ele>
        <time>2025-12-07T09:25:36Z</time>
      </trkpt>
      <trkpt lat="52.329799141734838" lon="8.233476178720594">
        <ele>85.6171875</ele>
        <time>2025-12-07T09:25:47Z</time>
      </trkpt>
      <trkpt lat="52.330114468932152" lon="8.233387665823102">
        <ele>85.828125</ele>
        <time>2025-12-07T09:25:57Z</time>
      </trkpt>
      <trkpt lat="52.33047497458756" lon="8.233303762972355">
        <ele>86.04296875</ele>
        <time>2025-12-07T09:26:08Z</time>
      </trkpt>
      <trkpt lat="52.330832462757826" lon="8.233209634199739">
        <ele>86.83984375</ele>
        <time>2025-12-07T09:26:18Z</time>
      </trkpt>
      <trkpt lat="52.331177461892366" lon="8.233097903430462">
        <ele>87.78515625</ele>
        <time>2025-12-07T09:26:29Z</time>
      </trkpt>
      <trkpt lat="52.331572417169809" lon="8.233008971437812">
        <ele>88.51953125</ele>
        <time>2025-12-07T09:26:39Z</time>
      </trkpt>
      <trkpt lat="52.332129729911685" lon="8.232848709449172">
        <ele>89.37890625</ele>
        <time>2025-12-07T09:26:50Z</time>
      </trkpt>
      <trkpt lat="52.332785362377763" lon="8.232678808271885">
        <ele>91.1171875</ele>
        <time>2025-12-07T09:27:00Z</time>
      </trkpt>
      <trkpt lat="52.333716005086899" lon="8.232647208496928">
        <ele>90.9921875</ele>
        <time>2025-12-07T09:27:12Z</time>
      </trkpt>
      <trkpt lat="52.334177512675524" lon="8.232583506032825">
        <ele>89.9609375</ele>
        <time>2025-12-07T09:27:23Z</time>
      </trkpt>
      <trkpt lat="52.334601301699877" lon="8.232457358390093">
        <ele>88.72265625</ele>
        <time>2025-12-07T09:27:34Z</time>
      </trkpt>
      <trkpt lat="52.334993910044432" lon="8.232330121099949">
        <ele>88.6484375</ele>
        <time>2025-12-07T09:27:44Z</time>
      </trkpt>
      <trkpt lat="52.335406802594662" lon="8.232182934880257">
        <ele>89.62890625</ele>
        <time>2025-12-07T09:27:54Z</time>
      </trkpt>
      <trkpt lat="52.335875099524856" lon="8.232015632092953">
        <ele>91.08984375</ele>
        <time>2025-12-07T09:28:05Z</time>
      </trkpt>
      <trkpt lat="52.336364602670074" lon="8.231881773099303">
        <ele>92.1171875</ele>
        <time>2025-12-07T09:28:16Z</time>
      </trkpt>
      <trkpt lat="52.336959466338158" lon="8.231782615184784">
        <ele>92.8203125</ele>
        <time>2025-12-07T09:28:26Z</time>
      </trkpt>
      <trkpt lat="52.337629180401564" lon="8.231677422299981">
        <ele>94.671875</ele>
        <time>2025-12-07T09:28:37Z</time>
      </trkpt>
      <trkpt lat="52.338506933301687" lon="8.231659065932035">
        <ele>97.93359375</ele>
        <time>2025-12-07T09:28:48Z</time>
      </trkpt>
      <trkpt lat="52.338802730664611" lon="8.231580862775445">
        <ele>98.88671875</ele>
        <time>2025-12-07T09:28:58Z</time>
      </trkpt>
      <trkpt lat="52.339089727029204" lon="8.231505425646901">
        <ele>100.1953125</ele>
        <time>2025-12-07T09:29:08Z</time>
      </trkpt>
      <trkpt lat="52.339387033134699" lon="8.231455134227872">
        <ele>101.7109375</ele>
        <time>2025-12-07T09:29:19Z</time>
      </trkpt>
      <trkpt lat="52.339677298441529" lon="8.231438035145402">
        <ele>103.06640625</ele>
        <time>2025-12-07T09:29:30Z</time>
      </trkpt>
      <trkpt lat="52.339957002550364" lon="8.231431161984801">
        <ele>104.5546875</ele>
        <time>2025-12-07T09:29:41Z</time>
      </trkpt>
      <trkpt lat="52.340251794084907" lon="8.231382966041565">
        <ele>106.3125</ele>
        <time>2025-12-07T09:29:52Z</time>
      </trkpt>
      <trkpt lat="52.340499814599752" lon="8.231330160051584">
        <ele>107.77734375</ele>
        <time>2025-12-07T09:30:02Z</time>
      </trkpt>
      <trkpt lat="52.340764263644814" lon="8.231141902506352">
        <ele>109.4296875</ele>
        <time>2025-12-07T09:30:14Z</time>
      </trkpt>
      <trkpt lat="52.340960064902902" lon="8.230991363525391">
        <ele>110.56640625</ele>
        <time>2025-12-07T09:30:24Z</time>
      </trkpt>
      <trkpt lat="52.341150837019086" lon="8.230806291103363">
        <ele>111.609375</ele>
        <time>2025-12-07T09:30:35Z</time>
      </trkpt>
      <trkpt lat="52.341358037665486" lon="8.230615435168147">
        <ele>112.81640625</ele>
        <time>2025-12-07T09:30:45Z</time>
      </trkpt>
      <trkpt lat="52.341584600508213" lon="8.230349896475673">
        <ele>113.58203125</ele>
        <time>2025-12-07T09:30:56Z</time>
      </trkpt>
      <trkpt lat="52.341857934370637" lon="8.230017386376858">
        <ele>114.421875</ele>
        <time>2025-12-07T09:31:07Z</time>
      </trkpt>
      <trkpt lat="52.342096399515867" lon="8.229621509090066">
        <ele>116.34765625</ele>
        <time>2025-12-07T09:31:18Z</time>
      </trkpt>
      <trkpt lat="52.342230593785644" lon="8.229051874950528">
        <ele>119.07421875</ele>
        <time>2025-12-07T09:31:29Z</time>
      </trkpt>
      <trkpt lat="52.342362273484468" lon="8.22847243398428">
        <ele>119.8984375</ele>
        <time>2025-12-07T09:31:40Z</time>
      </trkpt>
      <trkpt lat="52.342503676190972" lon="8.227824093773961">
        <ele>119.8359375</ele>
        <time>2025-12-07T09:31:50Z</time>
      </trkpt>
      <trkpt lat="52.342790588736534" lon="8.227120516821742">
        <ele>120.421875</ele>
        <time>2025-12-07T09:32:00Z</time>
      </trkpt>
      <trkpt lat="52.343435073271394" lon="8.227121019735932">
        <ele>116.84375</ele>
        <time>2025-12-07T09:32:11Z</time>
      </trkpt>
      <trkpt lat="52.343616709113121" lon="8.226719861850143">
        <ele>119.03515625</ele>
        <time>2025-12-07T09:32:21Z</time>
      </trkpt>
      <trkpt lat="52.343843607231975" lon="8.226083507761359">
        <ele>121.734375</ele>
        <time>2025-12-07T09:32:32Z</time>
      </trkpt>
      <trkpt lat="52.34422062523663" lon="8.226046292111278">
        <ele>120.82421875</ele>
        <time>2025-12-07T09:32:42Z</time>
      </trkpt>
      <trkpt lat="52.344472836703062" lon="8.225676901638508">
        <ele>121.3203125</ele>
        <time>2025-12-07T09:32:52Z</time>
      </trkpt>
      <trkpt lat="52.344807358458638" lon="8.225838001817465">
        <ele>119.9453125</ele>
        <time>2025-12-07T09:33:03Z</time>
      </trkpt>
      <trkpt lat="52.34524573199451" lon="8.226123405620456">
        <ele>119.734375</ele>
        <time>2025-12-07T09:33:13Z</time>
      </trkpt>
      <trkpt lat="52.345654936507344" lon="8.226062301546335">
        <ele>120.59765625</ele>
        <time>2025-12-07T09:33:23Z</time>
      </trkpt>
      <trkpt lat="52.345831459388137" lon="8.224989669397473">
        <ele>118.81640625</ele>
        <time>2025-12-07T09:33:34Z</time>
      </trkpt>
      <trkpt lat="52.346159527078271" lon="8.223917623981834">
        <ele>118.515625</ele>
        <time>2025-12-07T09:33:45Z</time>
      </trkpt>
      <trkpt lat="52.346326159313321" lon="8.222939958795905">
        <ele>116.2109375</ele>
        <time>2025-12-07T09:33:55Z</time>
      </trkpt>
      <trkpt lat="52.346523301675916" lon="8.221805635839701">
        <ele>112.4609375</ele>
        <time>2025-12-07T09:34:06Z</time>
      </trkpt>
      <trkpt lat="52.346655400469899" lon="8.220800813287497">
        <ele>110.2734375</ele>
        <time>2025-12-07T09:34:16Z</time>
      </trkpt>
      <trkpt lat="52.346818679943681" lon="8.219705885276198">
        <ele>108.8046875</ele>
        <time>2025-12-07T09:34:27Z</time>
      </trkpt>
      <trkpt lat="52.347071981057525" lon="8.218686562031508">
        <ele>107.890625</ele>
        <time>2025-12-07T09:34:38Z</time>
      </trkpt>
      <trkpt lat="52.347329305484891" lon="8.2176249101758">
        <ele>104.34375</ele>
        <time>2025-12-07T09:34:48Z</time>
      </trkpt>
      <trkpt lat="52.347608674317598" lon="8.216457897797227">
        <ele>103.0390625</ele>
        <time>2025-12-07T09:34:59Z</time>
      </trkpt>
      <trkpt lat="52.347807576879859" lon="8.215523902326822">
        <ele>103</ele>
        <time>2025-12-07T09:35:09Z</time>
      </trkpt>
      <trkpt lat="52.348009999841452" lon="8.214414473623037">
        <ele>101.11328125</ele>
        <time>2025-12-07T09:35:20Z</time>
      </trkpt>
      <trkpt lat="52.348286183550954" lon="8.213392719626427">
        <ele>98.328125</ele>
        <time>2025-12-07T09:35:30Z</time>
      </trkpt>
      <trkpt lat="52.348553901538253" lon="8.212384376674891">
        <ele>96.77734375</ele>
        <time>2025-12-07T09:35:40Z</time>
      </trkpt>
      <trkpt lat="52.348865540698171" lon="8.211384834721685">
        <ele>94.6953125</ele>
        <time>2025-12-07T09:35:50Z</time>
      </trkpt>
      <trkpt lat="52.349168797954917" lon="8.210341287776828">
        <ele>92.42578125</ele>
        <time>2025-12-07T09:36:00Z</time>
      </trkpt>
      <trkpt lat="52.349469205364585" lon="8.2093152590096">
        <ele>91.69921875</ele>
        <time>2025-12-07T09:36:10Z</time>
      </trkpt>
      <trkpt lat="52.349796518683434" lon="8.208159310743213">
        <ele>92.09375</ele>
        <time>2025-12-07T09:36:21Z</time>
      </trkpt>
      <trkpt lat="52.350148810073733" lon="8.20697570219636">
        <ele>93.56640625</ele>
        <time>2025-12-07T09:36:32Z</time>
      </trkpt>
      <trkpt lat="52.350541334599257" lon="8.205716405063868">
        <ele>89.171875</ele>
        <time>2025-12-07T09:36:43Z</time>
      </trkpt>
      <trkpt lat="52.350937714800239" lon="8.204774362966418">
        <ele>86.22265625</ele>
        <time>2025-12-07T09:36:53Z</time>
      </trkpt>
      <trkpt lat="52.351651014760137" lon="8.203904991969466">
        <ele>80.51953125</ele>
        <time>2025-12-07T09:37:04Z</time>
      </trkpt>
      <trkpt lat="52.352562379091978" lon="8.203463014215231">
        <ele>76.55859375</ele>
        <time>2025-12-07T09:37:15Z</time>
      </trkpt>
      <trkpt lat="52.353571727871895" lon="8.20340920239687">
        <ele>73.078125</ele>
        <time>2025-12-07T09:37:26Z</time>
      </trkpt>
      <trkpt lat="52.354500107467175" lon="8.203437784686685">
        <ele>70.16796875</ele>
        <time>2025-12-07T09:37:37Z</time>
      </trkpt>
      <trkpt lat="52.355290772393346" lon="8.203449016436935">
        <ele>68.015625</ele>
        <time>2025-12-07T09:37:48Z</time>
      </trkpt>
      <trkpt lat="52.355963671579957" lon="8.20346443913877">
        <ele>66.671875</ele>
        <time>2025-12-07T09:37:58Z</time>
      </trkpt>
      <trkpt lat="52.356621734797955" lon="8.203470977023244">
        <ele>65.1953125</ele>
        <time>2025-12-07T09:38:09Z</time>
      </trkpt>
      <trkpt lat="52.356778560206294" lon="8.202667571604252">
        <ele>64.75390625</ele>
        <time>2025-12-07T09:38:30Z</time>
      </trkpt>
      <trkpt lat="52.356681665405631" lon="8.201840864494443">
        <ele>66.21875</ele>
        <time>2025-12-07T09:38:40Z</time>
      </trkpt>
      <trkpt lat="52.356812926009297" lon="8.201019186526537">
        <ele>67.28125</ele>
        <time>2025-12-07T09:38:51Z</time>
      </trkpt>
      <trkpt lat="52.357296394184232" lon="8.200610233470798">
        <ele>65.40625</ele>
        <time>2025-12-07T09:39:01Z</time>
      </trkpt>
      <trkpt lat="52.357916403561831" lon="8.200461538508534">
        <ele>63.12890625</ele>
        <time>2025-12-07T09:39:11Z</time>
      </trkpt>
      <trkpt lat="52.358571365475655" lon="8.200329607352614">
        <ele>61.69140625</ele>
        <time>2025-12-07T09:39:21Z</time>
      </trkpt>
      <trkpt lat="52.359194559976459" lon="8.200036576017737">
        <ele>61.578125</ele>
        <time>2025-12-07T09:39:31Z</time>
      </trkpt>
      <trkpt lat="52.359846420586109" lon="8.199497703462839">
        <ele>62.09375</ele>
        <time>2025-12-07T09:39:42Z</time>
      </trkpt>
      <trkpt lat="52.360462406650186" lon="8.198966877534986">
        <ele>61.5703125</ele>
        <time>2025-12-07T09:39:53Z</time>
      </trkpt>
      <trkpt lat="52.361118793487549" lon="8.198452815413475">
        <ele>62.48828125</ele>
        <time>2025-12-07T09:40:04Z</time>
      </trkpt>
      <trkpt lat="52.361746598035097" lon="8.197964737191796">
        <ele>62.41015625</ele>
        <time>2025-12-07T09:40:15Z</time>
      </trkpt>
      <trkpt lat="52.362295528873801" lon="8.19753591902554">
        <ele>61.92578125</ele>
        <time>2025-12-07T09:40:25Z</time>
      </trkpt>
      <trkpt lat="52.362920399755239" lon="8.197059659287334">
        <ele>61.32421875</ele>
        <time>2025-12-07T09:40:36Z</time>
      </trkpt>
      <trkpt lat="52.363534374162555" lon="8.1966832280159">
        <ele>59.9453125</ele>
        <time>2025-12-07T09:40:46Z</time>
      </trkpt>
      <trkpt lat="52.364204172044992" lon="8.196375109255314">
        <ele>59.12109375</ele>
        <time>2025-12-07T09:40:57Z</time>
      </trkpt>
      <trkpt lat="52.364776823669672" lon="8.196097584441304">
        <ele>58.33984375</ele>
        <time>2025-12-07T09:41:07Z</time>
      </trkpt>
      <trkpt lat="52.364933816716075" lon="8.195368526503444">
        <ele>58.62890625</ele>
        <time>2025-12-07T09:41:18Z</time>
      </trkpt>
      <trkpt lat="52.364730220288038" lon="8.194455234333873">
        <ele>59.07421875</ele>
        <time>2025-12-07T09:41:29Z</time>
      </trkpt>
      <trkpt lat="52.36454657278955" lon="8.193616038188338">
        <ele>59.01953125</ele>
        <time>2025-12-07T09:41:39Z</time>
      </trkpt>
      <trkpt lat="52.364370971918106" lon="8.192819841206074">
        <ele>59.40625</ele>
        <time>2025-12-07T09:41:49Z</time>
      </trkpt>
      <trkpt lat="52.364176930859685" lon="8.191975699737668">
        <ele>59.84765625</ele>
        <time>2025-12-07T09:42:00Z</time>
      </trkpt>
      <trkpt lat="52.364009879529476" lon="8.191248066723347">
        <ele>60.87890625</ele>
        <time>2025-12-07T09:42:10Z</time>
      </trkpt>
      <trkpt lat="52.363837799057364" lon="8.190456228330731">
        <ele>62.7890625</ele>
        <time>2025-12-07T09:42:21Z</time>
      </trkpt>
      <trkpt lat="52.363715507090092" lon="8.189690122380853">
        <ele>64.15234375</ele>
        <time>2025-12-07T09:42:31Z</time>
      </trkpt>
      <trkpt lat="52.36368902027607" lon="8.18888328038156">
        <ele>65.11328125</ele>
        <time>2025-12-07T09:42:41Z</time>
      </trkpt>
      <trkpt lat="52.363748112693429" lon="8.188088089227676">
        <ele>65.56640625</ele>
        <time>2025-12-07T09:42:51Z</time>
      </trkpt>
      <trkpt lat="52.363910134881735" lon="8.187139090150595">
        <ele>65.0859375</ele>
        <time>2025-12-07T09:43:02Z</time>
      </trkpt>
      <trkpt lat="52.364234095439315" lon="8.186283716931939">
        <ele>64.37109375</ele>
        <time>2025-12-07T09:43:13Z</time>
      </trkpt>
      <trkpt lat="52.364705577492714" lon="8.185546780005097">
        <ele>63.58203125</ele>
        <time>2025-12-07T09:43:24Z</time>
      </trkpt>
      <trkpt lat="52.365176640450954" lon="8.184926519170404">
        <ele>63.65625</ele>
        <time>2025-12-07T09:43:34Z</time>
      </trkpt>
      <trkpt lat="52.365747196599841" lon="8.184363590553403">
        <ele>64.06640625</ele>
        <time>2025-12-07T09:43:45Z</time>
      </trkpt>
      <trkpt lat="52.36632663756609" lon="8.184097465127707">
        <ele>66.05859375</ele>
        <time>2025-12-07T09:43:55Z</time>
      </trkpt>
      <trkpt lat="52.366761490702629" lon="8.183677112683654">
        <ele>66.765625</ele>
        <time>2025-12-07T09:44:05Z</time>
      </trkpt>
      <trkpt lat="52.36712459474802" lon="8.183081075549126">
        <ele>67.9296875</ele>
        <time>2025-12-07T09:44:16Z</time>
      </trkpt>
      <trkpt lat="52.367432797327638" lon="8.182558296248317">
        <ele>70.1015625</ele>
        <time>2025-12-07T09:44:26Z</time>
      </trkpt>
      <trkpt lat="52.367741502821445" lon="8.182045239955187">
        <ele>71.21875</ele>
        <time>2025-12-07T09:44:36Z</time>
      </trkpt>
      <trkpt lat="52.368122460320592" lon="8.181393463164568">
        <ele>73.3671875</ele>
        <time>2025-12-07T09:44:47Z</time>
      </trkpt>
      <trkpt lat="52.368389675393701" lon="8.180473716929555">
        <ele>72.33203125</ele>
        <time>2025-12-07T09:44:58Z</time>
      </trkpt>
      <trkpt lat="52.368440134450793" lon="8.179442407563329">
        <ele>71.3828125</ele>
        <time>2025-12-07T09:45:08Z</time>
      </trkpt>
      <trkpt lat="52.368495706468821" lon="8.178230132907629">
        <ele>67.98046875</ele>
        <time>2025-12-07T09:45:19Z</time>
      </trkpt>
      <trkpt lat="52.368552200496197" lon="8.176936218515039">
        <ele>64.61328125</ele>
        <time>2025-12-07T09:45:30Z</time>
      </trkpt>
      <trkpt lat="52.368589080870152" lon="8.175757639110088">
        <ele>66.69921875</ele>
        <time>2025-12-07T09:45:41Z</time>
      </trkpt>
      <trkpt lat="52.369195260107517" lon="8.175428565591574">
        <ele>66.22265625</ele>
        <time>2025-12-07T09:45:52Z</time>
      </trkpt>
      <trkpt lat="52.369889700785279" lon="8.175136540085077">
        <ele>63.38671875</ele>
        <time>2025-12-07T09:46:02Z</time>
      </trkpt>
      <trkpt lat="52.370629822835326" lon="8.175002932548523">
        <ele>61</ele>
        <time>2025-12-07T09:46:12Z</time>
      </trkpt>
      <trkpt lat="52.371253436431289" lon="8.174506640061736">
        <ele>61</ele>
        <time>2025-12-07T09:46:22Z</time>
      </trkpt>
      <trkpt lat="52.371740592643619" lon="8.173619331791997">
        <ele>61.30078125</ele>
        <time>2025-12-07T09:46:33Z</time>
      </trkpt>
      <trkpt lat="52.372165471315384" lon="8.17274970933795">
        <ele>63.125</ele>
        <time>2025-12-07T09:46:44Z</time>
      </trkpt>
      <trkpt lat="52.372510805726051" lon="8.172001205384731">
        <ele>65.24609375</ele>
        <time>2025-12-07T09:46:54Z</time>
      </trkpt>
      <trkpt lat="52.372812302783132" lon="8.171358983963728">
        <ele>66.52734375</ele>
        <time>2025-12-07T09:47:04Z</time>
      </trkpt>
      <trkpt lat="52.373141041025519" lon="8.170790607109666">
        <ele>66.93359375</ele>
        <time>2025-12-07T09:47:15Z</time>
      </trkpt>
      <trkpt lat="52.37374453805387" lon="8.170990515500307">
        <ele>66.30859375</ele>
        <time>2025-12-07T09:47:25Z</time>
      </trkpt>
      <trkpt lat="52.374514834955335" lon="8.1712447386235">
        <ele>66.421875</ele>
        <time>2025-12-07T09:47:36Z</time>
      </trkpt>
      <trkpt lat="52.375158816576004" lon="8.17132193595171">
        <ele>65.2265625</ele>
        <time>2025-12-07T09:47:47Z</time>
      </trkpt>
      <trkpt lat="52.375234169885516" lon="8.170391041785479">
        <ele>62.80078125</ele>
        <time>2025-12-07T09:47:58Z</time>
      </trkpt>
      <trkpt lat="52.375293178483844" lon="8.169312961399555">
        <ele>62.35546875</ele>
        <time>2025-12-07T09:48:09Z</time>
      </trkpt>
      <trkpt lat="52.374817337840796" lon="8.168568229302764">
        <ele>62.1796875</ele>
        <time>2025-12-07T09:48:20Z</time>
      </trkpt>
      <trkpt lat="52.374707031995058" lon="8.167686285451055">
        <ele>62.05859375</ele>
        <time>2025-12-07T09:48:30Z</time>
      </trkpt>
      <trkpt lat="52.374824127182364" lon="8.166689006611705">
        <ele>62.83203125</ele>
        <time>2025-12-07T09:48:41Z</time>
      </trkpt>
      <trkpt lat="52.375092767179012" lon="8.16578971222043">
        <ele>60.90234375</ele>
        <time>2025-12-07T09:48:51Z</time>
      </trkpt>
      <trkpt lat="52.375475820153952" lon="8.164878515526652">
        <ele>60.42578125</ele>
        <time>2025-12-07T09:49:02Z</time>
      </trkpt>
      <trkpt lat="52.375956606119871" lon="8.164333272725344">
        <ele>59.6328125</ele>
        <time>2025-12-07T09:49:12Z</time>
      </trkpt>
      <trkpt lat="52.37651408649981" lon="8.163687782362104">
        <ele>58.74609375</ele>
        <time>2025-12-07T09:49:23Z</time>
      </trkpt>
      <trkpt lat="52.377038961276412" lon="8.162966938689351">
        <ele>58.3515625</ele>
        <time>2025-12-07T09:49:34Z</time>
      </trkpt>
      <trkpt lat="52.37749133259058" lon="8.162189936265349">
        <ele>58.54296875</ele>
        <time>2025-12-07T09:49:45Z</time>
      </trkpt>
      <trkpt lat="52.377742789685726" lon="8.161326097324491">
        <ele>59.02734375</ele>
        <time>2025-12-07T09:49:55Z</time>
      </trkpt>
      <trkpt lat="52.377955270931125" lon="8.16049980930984">
        <ele>60.34375</ele>
        <time>2025-12-07T09:50:06Z</time>
      </trkpt>
      <trkpt lat="52.377892658114433" lon="8.159685339778662">
        <ele>61.5078125</ele>
        <time>2025-12-07T09:50:17Z</time>
      </trkpt>
      <trkpt lat="52.377830129116774" lon="8.158945133909583">
        <ele>63.2109375</ele>
        <time>2025-12-07T09:50:27Z</time>
      </trkpt>
      <trkpt lat="52.377771036699414" lon="8.158232839778066">
        <ele>65.66796875</ele>
        <time>2025-12-07T09:50:37Z</time>
      </trkpt>
      <trkpt lat="52.37777229398489" lon="8.157692709937692">
        <ele>66.87890625</ele>
        <time>2025-12-07T09:50:48Z</time>
      </trkpt>
      <trkpt lat="52.377656372264028" lon="8.157280571758747">
        <ele>67.27734375</ele>
        <time>2025-12-07T09:50:59Z</time>
      </trkpt>
      <trkpt lat="52.377444561570883" lon="8.156583113595843">
        <ele>68</ele>
        <time>2025-12-07T09:51:10Z</time>
      </trkpt>
      <trkpt lat="52.37739066593349" lon="8.155899988487363">
        <ele>68</ele>
        <time>2025-12-07T09:51:20Z</time>
      </trkpt>
      <trkpt lat="52.377377422526479" lon="8.155215606093407">
        <ele>69.90625</ele>
        <time>2025-12-07T09:51:31Z</time>
      </trkpt>
      <trkpt lat="52.377362586557865" lon="8.154592663049698">
        <ele>71.515625</ele>
        <time>2025-12-07T09:51:42Z</time>
      </trkpt>
      <trkpt lat="52.377350265160203" lon="8.154025794938207">
        <ele>73.0390625</ele>
        <time>2025-12-07T09:51:52Z</time>
      </trkpt>
      <trkpt lat="52.377341799438" lon="8.153421878814697">
        <ele>75.0234375</ele>
        <time>2025-12-07T09:52:03Z</time>
      </trkpt>
      <trkpt lat="52.377328472211957" lon="8.152835564687848">
        <ele>77.03125</ele>
        <time>2025-12-07T09:52:14Z</time>
      </trkpt>
      <trkpt lat="52.377322940155864" lon="8.152242125943303">
        <ele>79.12890625</ele>
        <time>2025-12-07T09:52:25Z</time>
      </trkpt>
      <trkpt lat="52.377314306795597" lon="8.151614740490913">
        <ele>81.18359375</ele>
        <time>2025-12-07T09:52:36Z</time>
      </trkpt>
      <trkpt lat="52.37723283469677" lon="8.150940164923668">
        <ele>81.83984375</ele>
        <time>2025-12-07T09:52:47Z</time>
      </trkpt>
      <trkpt lat="52.377109285444021" lon="8.150370363146067">
        <ele>81.97265625</ele>
        <time>2025-12-07T09:52:57Z</time>
      </trkpt>
      <trkpt lat="52.376975091174245" lon="8.149700900539756">
        <ele>82.73046875</ele>
        <time>2025-12-07T09:53:08Z</time>
      </trkpt>
      <trkpt lat="52.376845506951213" lon="8.149127159267664">
        <ele>84.19921875</ele>
        <time>2025-12-07T09:53:18Z</time>
      </trkpt>
      <trkpt lat="52.376716341823339" lon="8.148546628654003">
        <ele>85.28125</ele>
        <time>2025-12-07T09:53:28Z</time>
      </trkpt>
      <trkpt lat="52.376552307978272" lon="8.147859899327159">
        <ele>86.5390625</ele>
        <time>2025-12-07T09:53:39Z</time>
      </trkpt>
      <trkpt lat="52.376351896673441" lon="8.147207368165255">
        <ele>87.4765625</ele>
        <time>2025-12-07T09:53:50Z</time>
      </trkpt>
      <trkpt lat="52.375461738556623" lon="8.145860396325588">
        <ele>89.15234375</ele>
        <time>2025-12-07T09:53:52Z</time>
      </trkpt>
      <trkpt lat="52.374052405357361" lon="8.145324205979705">
        <ele>80.5390625</ele>
        <time>2025-12-07T09:53:53Z</time>
      </trkpt>
      <trkpt lat="52.372048208490014" lon="8.141142223030329">
        <ele>80.27734375</ele>
        <time>2025-12-07T09:53:54Z</time>
      </trkpt>
      <trkpt lat="52.370749516412616" lon="8.132448429241777">
        <ele>85.28515625</ele>
        <time>2025-12-07T09:53:54Z</time>
      </trkpt>
      <trkpt lat="52.369702365249395" lon="8.12293061055243">
        <ele>87.9765625</ele>
        <time>2025-12-07T09:53:54Z</time>
      </trkpt>
      <trkpt lat="52.369179334491491" lon="8.118047565221787">
        <ele>88</ele>
        <time>2025-12-07T09:53:54Z</time>
      </trkpt>
      <trkpt lat="52.368372827768326" lon="8.115194197744131">
        <ele>90.66796875</ele>
        <time>2025-12-07T09:53:54Z</time>
      </trkpt>
      <trkpt lat="52.367021162062883" lon="8.105817614123225">
        <ele>109.8125</ele>
        <time>2025-12-07T09:53:54Z</time>
      </trkpt>
      <trkpt lat="52.369503462687135" lon="8.106272164732218">
        <ele>101.91796875</ele>
        <time>2025-12-07T09:58:05Z</time>
      </trkpt>
      <trkpt lat="52.371625006198883" lon="8.104714220389724">
        <ele>99.375</ele>
        <time>2025-12-07T10:00:10Z</time>
      </trkpt>
      <trkpt lat="52.3737464658916" lon="8.103842921555042">
        <ele>102.15625</ele>
        <time>2025-12-07T10:02:16Z</time>
      </trkpt>
      <trkpt lat="52.374819936230779" lon="8.103177566081286">
        <ele>105</ele>
        <time>2025-12-07T10:04:21Z</time>
      </trkpt>
      <trkpt lat="52.375516137108207" lon="8.101619621738792">
        <ele>107.9609375</ele>
        <time>2025-12-07T10:06:27Z</time>
      </trkpt>
      <trkpt lat="52.376317027956247" lon="8.0965940002352">
        <ele>120.5</ele>
        <time>2025-12-07T10:08:32Z</time>
      </trkpt>
      <trkpt lat="52.375357383862138" lon="8.091980516910553">
        <ele>131.92578125</ele>
        <time>2025-12-07T10:10:38Z</time>
      </trkpt>
      <trkpt lat="52.375233583152294" lon="8.09135246090591">
        <ele>132.37890625</ele>
        <time>2025-12-07T10:10:49Z</time>
      </trkpt>
      <trkpt lat="52.375113889575005" lon="8.090820210054517">
        <ele>131.890625</ele>
        <time>2025-12-07T10:11:00Z</time>
      </trkpt>
      <trkpt lat="52.375029735267162" lon="8.090252419933677">
        <ele>131.65234375</ele>
        <time>2025-12-07T10:11:11Z</time>
      </trkpt>
      <trkpt lat="52.37498321570456" lon="8.089739866554737">
        <ele>131.4765625</ele>
        <time>2025-12-07T10:11:21Z</time>
      </trkpt>
      <trkpt lat="52.374945161864161" lon="8.08923477306962">
        <ele>131.37890625</ele>
        <time>2025-12-07T10:11:31Z</time>
      </trkpt>
      <trkpt lat="52.374900570139289" lon="8.088693469762802">
        <ele>132.89453125</ele>
        <time>2025-12-07T10:11:42Z</time>
      </trkpt>
      <trkpt lat="52.374858995899558" lon="8.088215030729771">
        <ele>134.28125</ele>
        <time>2025-12-07T10:11:52Z</time>
      </trkpt>
      <trkpt lat="52.374856481328607" lon="8.087686635553837">
        <ele>136.08984375</ele>
        <time>2025-12-07T10:12:03Z</time>
      </trkpt>
      <trkpt lat="52.374798730015755" lon="8.087175590917468">
        <ele>136.6875</ele>
        <time>2025-12-07T10:12:14Z</time>
      </trkpt>
      <trkpt lat="52.374498406425118" lon="8.086728835478425">
        <ele>136.39453125</ele>
        <time>2025-12-07T10:12:24Z</time>
      </trkpt>
      <trkpt lat="52.37411200068891" lon="8.086285265162587">
        <ele>136</ele>
        <time>2025-12-07T10:12:34Z</time>
      </trkpt>
      <trkpt lat="52.373589975759387" lon="8.086085608229041">
        <ele>135.78515625</ele>
        <time>2025-12-07T10:12:44Z</time>
      </trkpt>
      <trkpt lat="52.372978013008833" lon="8.08606993407011">
        <ele>136.046875</ele>
        <time>2025-12-07T10:12:55Z</time>
      </trkpt>
      <trkpt lat="52.372343502938747" lon="8.0861412640661">
        <ele>137.2578125</ele>
        <time>2025-12-07T10:13:06Z</time>
      </trkpt>
      <trkpt lat="52.37172894179821" lon="8.08590623550117">
        <ele>138</ele>
        <time>2025-12-07T10:13:17Z</time>
      </trkpt>
      <trkpt lat="52.371222339570522" lon="8.085648827254772">
        <ele>137.5234375</ele>
        <time>2025-12-07T10:13:27Z</time>
      </trkpt>
      <trkpt lat="52.37073359079659" lon="8.085074163973332">
        <ele>137</ele>
        <time>2025-12-07T10:13:38Z</time>
      </trkpt>
      <trkpt lat="52.370173260569572" lon="8.084543170407414">
        <ele>137.90625</ele>
        <time>2025-12-07T10:13:49Z</time>
      </trkpt>
      <trkpt lat="52.36935468390584" lon="8.084203870967031">
        <ele>136.25</ele>
        <time>2025-12-07T10:14:00Z</time>
      </trkpt>
      <trkpt lat="52.368715731427073" lon="8.083978900685906">
        <ele>138.14453125</ele>
        <time>2025-12-07T10:14:11Z</time>
      </trkpt>
      <trkpt lat="52.368208793923259" lon="8.084054170176387">
        <ele>140.1015625</ele>
        <time>2025-12-07T10:14:22Z</time>
      </trkpt>
      <trkpt lat="52.367813000455499" lon="8.084146874025464">
        <ele>141.23046875</ele>
        <time>2025-12-07T10:14:32Z</time>
      </trkpt>
      <trkpt lat="52.367432881146669" lon="8.084154333919287">
        <ele>142.44140625</ele>
        <time>2025-12-07T10:14:42Z</time>
      </trkpt>
      <trkpt lat="52.367004062980413" lon="8.084121560677886">
        <ele>143.48046875</ele>
        <time>2025-12-07T10:14:53Z</time>
      </trkpt>
      <trkpt lat="52.366398805752397" lon="8.083866918459535">
        <ele>143.51953125</ele>
        <time>2025-12-07T10:15:04Z</time>
      </trkpt>
      <trkpt lat="52.365564303472638" lon="8.082931414246559">
        <ele>136.703125</ele>
        <time>2025-12-07T10:15:15Z</time>
      </trkpt>
      <trkpt lat="52.364663584157825" lon="8.081928184255958">
        <ele>130.71484375</ele>
        <time>2025-12-07T10:15:26Z</time>
      </trkpt>
      <trkpt lat="52.363873841241002" lon="8.081056801602244">
        <ele>119.13671875</ele>
        <time>2025-12-07T10:15:37Z</time>
      </trkpt>
      <trkpt lat="52.363162469118834" lon="8.080493537709117">
        <ele>114.54296875</ele>
        <time>2025-12-07T10:15:47Z</time>
      </trkpt>
      <trkpt lat="52.362475991249084" lon="8.079940835013986">
        <ele>111.171875</ele>
        <time>2025-12-07T10:15:58Z</time>
      </trkpt>
      <trkpt lat="52.36176285892725" lon="8.079365082085133">
        <ele>111.765625</ele>
        <time>2025-12-07T10:16:09Z</time>
      </trkpt>
      <trkpt lat="52.361110160127282" lon="8.078849008306861">
        <ele>114.734375</ele>
        <time>2025-12-07T10:16:19Z</time>
      </trkpt>
      <trkpt lat="52.360376995056868" lon="8.078273590654135">
        <ele>113.36328125</ele>
        <time>2025-12-07T10:16:30Z</time>
      </trkpt>
      <trkpt lat="52.359634106978774" lon="8.077929010614753">
        <ele>109.75</ele>
        <time>2025-12-07T10:16:40Z</time>
      </trkpt>
      <trkpt lat="52.358690639957786" lon="8.077491223812103">
        <ele>107.31640625</ele>
        <time>2025-12-07T10:16:51Z</time>
      </trkpt>
      <trkpt lat="52.357790004462004" lon="8.077078498899937">
        <ele>103.02734375</ele>
        <time>2025-12-07T10:17:02Z</time>
      </trkpt>
      <trkpt lat="52.357027167454362" lon="8.07670483365655">
        <ele>97.43359375</ele>
        <time>2025-12-07T10:17:13Z</time>
      </trkpt>
      <trkpt lat="52.356278914958239" lon="8.076335862278938">
        <ele>94.74609375</ele>
        <time>2025-12-07T10:17:23Z</time>
      </trkpt>
      <trkpt lat="52.355517586693168" lon="8.076009219512343">
        <ele>91.4296875</ele>
        <time>2025-12-07T10:17:33Z</time>
      </trkpt>
      <trkpt lat="52.354695992544293" lon="8.075636979192495">
        <ele>85.59375</ele>
        <time>2025-12-07T10:17:44Z</time>
      </trkpt>
      <trkpt lat="52.354051172733307" lon="8.075242694467306">
        <ele>82.58984375</ele>
        <time>2025-12-07T10:17:54Z</time>
      </trkpt>
      <trkpt lat="52.353457566350698" lon="8.074830137193203">
        <ele>84.08984375</ele>
        <time>2025-12-07T10:18:05Z</time>
      </trkpt>
      <trkpt lat="52.352981138974428" lon="8.074506763368845">
        <ele>86.84375</ele>
        <time>2025-12-07T10:18:15Z</time>
      </trkpt>
      <trkpt lat="52.352471016347408" lon="8.0741620156914">
        <ele>88.23046875</ele>
        <time>2025-12-07T10:18:26Z</time>
      </trkpt>
      <trkpt lat="52.352011101320386" lon="8.073843000456691">
        <ele>89.45703125</ele>
        <time>2025-12-07T10:18:36Z</time>
      </trkpt>
      <trkpt lat="52.351563088595867" lon="8.073542090132833">
        <ele>90.5390625</ele>
        <time>2025-12-07T10:18:46Z</time>
      </trkpt>
      <trkpt lat="52.35109269618988" lon="8.073229277506471">
        <ele>90.30078125</ele>
        <time>2025-12-07T10:18:57Z</time>
      </trkpt>
      <trkpt lat="52.350615933537483" lon="8.072893163189292">
        <ele>89.9140625</ele>
        <time>2025-12-07T10:19:08Z</time>
      </trkpt>
      <trkpt lat="52.350089717656374" lon="8.07253198698163">
        <ele>90.50390625</ele>
        <time>2025-12-07T10:19:19Z</time>
      </trkpt>
      <trkpt lat="52.349587138742208" lon="8.072020607069135">
        <ele>90.3203125</ele>
        <time>2025-12-07T10:19:29Z</time>
      </trkpt>
      <trkpt lat="52.348997388035059" lon="8.071384839713574">
        <ele>86.546875</ele>
        <time>2025-12-07T10:19:40Z</time>
      </trkpt>
      <trkpt lat="52.348333625122905" lon="8.070670114830136">
        <ele>82.1796875</ele>
        <time>2025-12-07T10:19:51Z</time>
      </trkpt>
      <trkpt lat="52.34768059104681" lon="8.06996033526957">
        <ele>79.98046875</ele>
        <time>2025-12-07T10:20:02Z</time>
      </trkpt>
      <trkpt lat="52.347183879464865" lon="8.069396065548062">
        <ele>77.96484375</ele>
        <time>2025-12-07T10:20:13Z</time>
      </trkpt>
      <trkpt lat="52.347038118168712" lon="8.068452263250947">
        <ele>76.75</ele>
        <time>2025-12-07T10:20:23Z</time>
      </trkpt>
      <trkpt lat="52.34690660610795" lon="8.067465797066689">
        <ele>76.68359375</ele>
        <time>2025-12-07T10:20:33Z</time>
      </trkpt>
      <trkpt lat="52.346777440980077" lon="8.066531466320157">
        <ele>76.26953125</ele>
        <time>2025-12-07T10:20:43Z</time>
      </trkpt>
      <trkpt lat="52.346635032445192" lon="8.065520189702511">
        <ele>76.34765625</ele>
        <time>2025-12-07T10:20:54Z</time>
      </trkpt>
      <trkpt lat="52.346484493464231" lon="8.064531292766333">
        <ele>76.73828125</ele>
        <time>2025-12-07T10:21:05Z</time>
      </trkpt>
      <trkpt lat="52.346289865672588" lon="8.063680697232485">
        <ele>78.07421875</ele>
        <time>2025-12-07T10:21:15Z</time>
      </trkpt>
      <trkpt lat="52.346083587035537" lon="8.062767824158073">
        <ele>78.3671875</ele>
        <time>2025-12-07T10:21:26Z</time>
      </trkpt>
      <trkpt lat="52.345877727493644" lon="8.06186961941421">
        <ele>77.8125</ele>
        <time>2025-12-07T10:21:37Z</time>
      </trkpt>
      <trkpt lat="52.345678992569447" lon="8.060957500711083">
        <ele>78.953125</ele>
        <time>2025-12-07T10:21:48Z</time>
      </trkpt>
      <trkpt lat="52.34548662789166" lon="8.060116376727819">
        <ele>80.50390625</ele>
        <time>2025-12-07T10:21:59Z</time>
      </trkpt>
      <trkpt lat="52.345294263213873" lon="8.059284808114171">
        <ele>79.2734375</ele>
        <time>2025-12-07T10:22:09Z</time>
      </trkpt>
      <trkpt lat="52.34509184025228" lon="8.058447539806366">
        <ele>79.59375</ele>
        <time>2025-12-07T10:22:19Z</time>
      </trkpt>
      <trkpt lat="52.344656735658646" lon="8.057809174060822">
        <ele>78.5234375</ele>
        <time>2025-12-07T10:22:30Z</time>
      </trkpt>
      <trkpt lat="52.342783883213997" lon="8.052664697170258">
        <ele>78.734375</ele>
        <time>2025-12-07T10:22:33Z</time>
      </trkpt>
      <trkpt lat="52.342653628438711" lon="8.050920339301229">
        <ele>77.91015625</ele>
        <time>2025-12-07T10:22:34Z</time>
      </trkpt>
      <trkpt lat="52.342481296509504" lon="8.050394793972373">
        <ele>77.49609375</ele>
        <time>2025-12-07T10:22:35Z</time>
      </trkpt>
      <trkpt lat="52.344246106222272" lon="8.046164028346539">
        <ele>79.265625</ele>
        <time>2025-12-07T10:22:37Z</time>
      </trkpt>
      <trkpt lat="52.343795914202929" lon="8.045908799394965">
        <ele>78.8203125</ele>
        <time>2025-12-07T10:22:38Z</time>
      </trkpt>
      <trkpt lat="52.343424009159207" lon="8.046227563172579">
        <ele>78.6015625</ele>
        <time>2025-12-07T10:22:38Z</time>
      </trkpt>
      <trkpt lat="52.342580119147897" lon="8.046014159917831">
        <ele>76.89453125</ele>
        <time>2025-12-07T10:22:38Z</time>
      </trkpt>
      <trkpt lat="52.342847920954227" lon="8.044118424877524">
        <ele>76.85546875</ele>
        <time>2025-12-07T10:22:39Z</time>
      </trkpt>
      <trkpt lat="52.342226738110185" lon="8.04059567861259">
        <ele>79.55859375</ele>
        <time>2025-12-07T10:22:39Z</time>
      </trkpt>
      <trkpt lat="52.342381635680795" lon="8.03635192103684">
        <ele>84.37890625</ele>
        <time>2025-12-07T10:22:39Z</time>
      </trkpt>
      <trkpt lat="52.340415325015783" lon="8.037948925048113">
        <ele>83.5859375</ele>
        <time>2025-12-07T10:22:39Z</time>
      </trkpt>
      <trkpt lat="52.339673275128007" lon="8.038232484832406">
        <ele>85.0078125</ele>
        <time>2025-12-07T10:22:39Z</time>
      </trkpt>
      <trkpt lat="52.337571764364839" lon="8.040262497961521">
        <ele>92.8828125</ele>
        <time>2025-12-07T10:22:39Z</time>
      </trkpt>
      <trkpt lat="52.336949072778225" lon="8.040404319763184">
        <ele>96.27734375</ele>
        <time>2025-12-07T10:22:39Z</time>
      </trkpt>
      <trkpt lat="52.337350314483047" lon="8.041460271924734">
        <ele>94.8125</ele>
        <time>2025-12-07T10:22:39Z</time>
      </trkpt>
      <trkpt lat="52.336026728153229" lon="8.042385214939714">
        <ele>90.01953125</ele>
        <time>2025-12-07T10:22:39Z</time>
      </trkpt>
      <trkpt lat="52.335005393251777" lon="8.042844459414482">
        <ele>92.59375</ele>
        <time>2025-12-07T10:22:39Z</time>
      </trkpt>
      <trkpt lat="52.333698403090239" lon="8.04000249132514">
        <ele>101.26171875</ele>
        <time>2025-12-07T10:22:39Z</time>
      </trkpt>
      <trkpt lat="52.333118123933673" lon="8.039610804989934">
        <ele>105.15234375</ele>
        <time>2025-12-07T10:22:39Z</time>
      </trkpt>
      <trkpt lat="52.332034260034561" lon="8.039390696212649">
        <ele>111.76953125</ele>
        <time>2025-12-07T10:22:39Z</time>
      </trkpt>
      <trkpt lat="52.327666869387031" lon="8.040775721892715">
        <ele>104.234375</ele>
        <time>2025-12-07T10:22:39Z</time>
      </trkpt>
      <trkpt lat="52.325398977845907" lon="8.042429387569428">
        <ele>114.73046875</ele>
        <time>2025-12-07T10:22:39Z</time>
      </trkpt>
      <trkpt lat="52.322544604539871" lon="8.042688388377428">
        <ele>105.16796875</ele>
        <time>2025-12-07T10:22:39Z</time>
      </trkpt>
      <trkpt lat="52.320582317188382" lon="8.04283507168293">
        <ele>110.26171875</ele>
        <time>2025-12-07T10:22:39Z</time>
      </trkpt>
      <trkpt lat="52.318940134719014" lon="8.042668104171753">
        <ele>114.8046875</ele>
        <time>2025-12-07T10:22:39Z</time>
      </trkpt>
      <trkpt lat="52.318398496136069" lon="8.042348669841886">
        <ele>118.4453125</ele>
        <time>2025-12-07T10:22:39Z</time>
      </trkpt>
      <trkpt lat="52.313237590715289" lon="8.042892906814814">
        <ele>122.04296875</ele>
        <time>2025-12-07T10:22:39Z</time>
      </trkpt>
      <trkpt lat="52.310721259564161" lon="8.042166698724031">
        <ele>104.375</ele>
      </trkpt>
      <trkpt lat="52.309377891942859" lon="8.039351468905807">
        <ele>98.09375</ele>
      </trkpt>
      <trkpt lat="52.309493394568563" lon="8.038167022168636">
        <ele>95.81640625</ele>
      </trkpt>
      <trkpt lat="52.309367414563894" lon="8.036690717563033">
        <ele>88.78125</ele>
      </trkpt>
      <trkpt lat="52.309251995757222" lon="8.036742182448506">
        <ele>88.62109375</ele>
      </trkpt>
    </trkseg>
  </trk>

</gpx>